<?xml version="1.0" encoding="UTF-8" standalone="no" ?>
<gpx xmlns="http://www.topografix.com/GPX/1/1" xmlns:xsi="http://www.w3.org/2001/XMLSchema-instance" xsi:schemaLocation="http://www.topografix.com/GPX/1/1 http://www.topografix.com/GPX/1/1/gpx.xsd" version="1.1" creator="VisuGPX - https://www.visugpx.com">
  <metadata>
    <name>Ballade à Ablain-Saint-Nazaire - 13/11/2015</name>
    <desc><![CDATA[Ballade à Ablain-Saint-Nazaire - 13/11/2015]]></desc>
  </metadata>
  <trk>
    <name><![CDATA[Tracé actuel: 13 NOV 2015 09:12]]></name>
    <trkseg>
      <trkpt lat="50.39325" lon="2.7277">
        <ele>84.25</ele>
        <time>2015-11-13T08:12:36Z</time>
      </trkpt>
      <trkpt lat="50.39325" lon="2.7277">
        <ele>84.25</ele>
        <time>2015-11-13T08:12:37Z</time>
      </trkpt>
      <trkpt lat="50.39325" lon="2.72771">
        <ele>84.25</ele>
        <time>2015-11-13T08:12:57Z</time>
      </trkpt>
      <trkpt lat="50.39324" lon="2.72771">
        <ele>84.73</ele>
        <time>2015-11-13T08:13:23Z</time>
      </trkpt>
      <trkpt lat="50.39326" lon="2.7277">
        <ele>84.73</ele>
        <time>2015-11-13T08:13:34Z</time>
      </trkpt>
      <trkpt lat="50.39325" lon="2.7277">
        <ele>84.73</ele>
        <time>2015-11-13T08:13:46Z</time>
      </trkpt>
      <trkpt lat="50.39326" lon="2.7277">
        <ele>84.73</ele>
        <time>2015-11-13T08:14:04Z</time>
      </trkpt>
      <trkpt lat="50.39326" lon="2.72762">
        <ele>84.73</ele>
        <time>2015-11-13T08:14:18Z</time>
      </trkpt>
      <trkpt lat="50.39327" lon="2.72748">
        <ele>83.29</ele>
        <time>2015-11-13T08:14:31Z</time>
      </trkpt>
      <trkpt lat="50.39329" lon="2.7274">
        <ele>83.29</ele>
        <time>2015-11-13T08:14:46Z</time>
      </trkpt>
      <trkpt lat="50.39328" lon="2.72739">
        <ele>83.29</ele>
        <time>2015-11-13T08:15:20Z</time>
      </trkpt>
      <trkpt lat="50.39328" lon="2.72738">
        <ele>82.81</ele>
        <time>2015-11-13T08:15:38Z</time>
      </trkpt>
      <trkpt lat="50.39329" lon="2.72739">
        <ele>82.33</ele>
        <time>2015-11-13T08:16:08Z</time>
      </trkpt>
      <trkpt lat="50.39333" lon="2.72741">
        <ele>82.81</ele>
        <time>2015-11-13T08:16:47Z</time>
      </trkpt>
      <trkpt lat="50.39331" lon="2.72739">
        <ele>83.77</ele>
        <time>2015-11-13T08:17:15Z</time>
      </trkpt>
      <trkpt lat="50.39329" lon="2.72739">
        <ele>83.77</ele>
        <time>2015-11-13T08:17:46Z</time>
      </trkpt>
      <trkpt lat="50.39328" lon="2.72754">
        <ele>84.25</ele>
        <time>2015-11-13T08:18:03Z</time>
      </trkpt>
      <trkpt lat="50.39328" lon="2.72767">
        <ele>84.25</ele>
        <time>2015-11-13T08:18:12Z</time>
      </trkpt>
      <trkpt lat="50.39336" lon="2.72803">
        <ele>82.81</ele>
        <time>2015-11-13T08:18:31Z</time>
      </trkpt>
      <trkpt lat="50.39339" lon="2.72823">
        <ele>82.81</ele>
        <time>2015-11-13T08:18:41Z</time>
      </trkpt>
      <trkpt lat="50.3934" lon="2.72825">
        <ele>82.81</ele>
        <time>2015-11-13T08:18:42Z</time>
      </trkpt>
      <trkpt lat="50.3934" lon="2.72827">
        <ele>83.29</ele>
        <time>2015-11-13T08:18:43Z</time>
      </trkpt>
      <trkpt lat="50.39341" lon="2.72829">
        <ele>83.29</ele>
        <time>2015-11-13T08:18:44Z</time>
      </trkpt>
      <trkpt lat="50.39341" lon="2.72831">
        <ele>83.29</ele>
        <time>2015-11-13T08:18:45Z</time>
      </trkpt>
      <trkpt lat="50.39342" lon="2.72833">
        <ele>83.29</ele>
        <time>2015-11-13T08:18:46Z</time>
      </trkpt>
      <trkpt lat="50.39342" lon="2.72835">
        <ele>83.29</ele>
        <time>2015-11-13T08:18:47Z</time>
      </trkpt>
      <trkpt lat="50.39342" lon="2.72838">
        <ele>82.81</ele>
        <time>2015-11-13T08:18:48Z</time>
      </trkpt>
      <trkpt lat="50.39348" lon="2.72855">
        <ele>84.25</ele>
        <time>2015-11-13T08:18:57Z</time>
      </trkpt>
      <trkpt lat="50.3935" lon="2.72862">
        <ele>84.25</ele>
        <time>2015-11-13T08:19:01Z</time>
      </trkpt>
      <trkpt lat="50.3935" lon="2.72865">
        <ele>84.25</ele>
        <time>2015-11-13T08:19:02Z</time>
      </trkpt>
      <trkpt lat="50.39351" lon="2.72867">
        <ele>84.25</ele>
        <time>2015-11-13T08:19:03Z</time>
      </trkpt>
      <trkpt lat="50.39352" lon="2.72868">
        <ele>84.25</ele>
        <time>2015-11-13T08:19:04Z</time>
      </trkpt>
      <trkpt lat="50.39353" lon="2.7287">
        <ele>84.25</ele>
        <time>2015-11-13T08:19:05Z</time>
      </trkpt>
      <trkpt lat="50.39353" lon="2.72872">
        <ele>84.25</ele>
        <time>2015-11-13T08:19:06Z</time>
      </trkpt>
      <trkpt lat="50.39356" lon="2.72877">
        <ele>84.73</ele>
        <time>2015-11-13T08:19:09Z</time>
      </trkpt>
      <trkpt lat="50.39357" lon="2.72878">
        <ele>84.73</ele>
        <time>2015-11-13T08:19:10Z</time>
      </trkpt>
      <trkpt lat="50.39358" lon="2.7288">
        <ele>84.73</ele>
        <time>2015-11-13T08:19:11Z</time>
      </trkpt>
      <trkpt lat="50.39358" lon="2.72883">
        <ele>84.73</ele>
        <time>2015-11-13T08:19:12Z</time>
      </trkpt>
      <trkpt lat="50.39359" lon="2.72886">
        <ele>84.73</ele>
        <time>2015-11-13T08:19:13Z</time>
      </trkpt>
      <trkpt lat="50.39359" lon="2.72888">
        <ele>84.73</ele>
        <time>2015-11-13T08:19:14Z</time>
      </trkpt>
      <trkpt lat="50.39361" lon="2.72894">
        <ele>86.18</ele>
        <time>2015-11-13T08:19:17Z</time>
      </trkpt>
      <trkpt lat="50.39374" lon="2.72935">
        <ele>84.73</ele>
        <time>2015-11-13T08:19:38Z</time>
      </trkpt>
      <trkpt lat="50.39384" lon="2.72962">
        <ele>84.73</ele>
        <time>2015-11-13T08:19:53Z</time>
      </trkpt>
      <trkpt lat="50.39386" lon="2.72969">
        <ele>86.18</ele>
        <time>2015-11-13T08:19:57Z</time>
      </trkpt>
      <trkpt lat="50.39386" lon="2.72972">
        <ele>86.18</ele>
        <time>2015-11-13T08:19:58Z</time>
      </trkpt>
      <trkpt lat="50.39389" lon="2.72991">
        <ele>86.66</ele>
        <time>2015-11-13T08:20:07Z</time>
      </trkpt>
      <trkpt lat="50.39389" lon="2.72993">
        <ele>86.66</ele>
        <time>2015-11-13T08:20:08Z</time>
      </trkpt>
      <trkpt lat="50.39391" lon="2.73014">
        <ele>87.14</ele>
        <time>2015-11-13T08:20:18Z</time>
      </trkpt>
      <trkpt lat="50.39392" lon="2.73017">
        <ele>87.14</ele>
        <time>2015-11-13T08:20:19Z</time>
      </trkpt>
      <trkpt lat="50.39392" lon="2.73019">
        <ele>87.14</ele>
        <time>2015-11-13T08:20:20Z</time>
      </trkpt>
      <trkpt lat="50.39392" lon="2.73021">
        <ele>87.14</ele>
        <time>2015-11-13T08:20:21Z</time>
      </trkpt>
      <trkpt lat="50.39392" lon="2.73023">
        <ele>87.14</ele>
        <time>2015-11-13T08:20:22Z</time>
      </trkpt>
      <trkpt lat="50.39393" lon="2.73026">
        <ele>87.62</ele>
        <time>2015-11-13T08:20:23Z</time>
      </trkpt>
      <trkpt lat="50.39393" lon="2.73028">
        <ele>87.62</ele>
        <time>2015-11-13T08:20:24Z</time>
      </trkpt>
      <trkpt lat="50.39393" lon="2.7303">
        <ele>87.62</ele>
        <time>2015-11-13T08:20:25Z</time>
      </trkpt>
      <trkpt lat="50.39393" lon="2.73033">
        <ele>88.1</ele>
        <time>2015-11-13T08:20:26Z</time>
      </trkpt>
      <trkpt lat="50.39393" lon="2.73036">
        <ele>88.1</ele>
        <time>2015-11-13T08:20:27Z</time>
      </trkpt>
      <trkpt lat="50.39393" lon="2.73039">
        <ele>87.62</ele>
        <time>2015-11-13T08:20:28Z</time>
      </trkpt>
      <trkpt lat="50.39394" lon="2.73041">
        <ele>88.1</ele>
        <time>2015-11-13T08:20:29Z</time>
      </trkpt>
      <trkpt lat="50.39394" lon="2.73043">
        <ele>88.1</ele>
        <time>2015-11-13T08:20:30Z</time>
      </trkpt>
      <trkpt lat="50.39395" lon="2.73046">
        <ele>88.1</ele>
        <time>2015-11-13T08:20:31Z</time>
      </trkpt>
      <trkpt lat="50.39396" lon="2.73052">
        <ele>88.1</ele>
        <time>2015-11-13T08:20:35Z</time>
      </trkpt>
      <trkpt lat="50.39397" lon="2.73054">
        <ele>88.58</ele>
        <time>2015-11-13T08:20:36Z</time>
      </trkpt>
      <trkpt lat="50.39397" lon="2.73057">
        <ele>88.58</ele>
        <time>2015-11-13T08:20:37Z</time>
      </trkpt>
      <trkpt lat="50.39403" lon="2.73085">
        <ele>89.54</ele>
        <time>2015-11-13T08:20:51Z</time>
      </trkpt>
      <trkpt lat="50.39403" lon="2.73087">
        <ele>89.54</ele>
        <time>2015-11-13T08:20:52Z</time>
      </trkpt>
      <trkpt lat="50.39404" lon="2.73092">
        <ele>89.54</ele>
        <time>2015-11-13T08:20:55Z</time>
      </trkpt>
      <trkpt lat="50.39405" lon="2.73095">
        <ele>89.54</ele>
        <time>2015-11-13T08:20:57Z</time>
      </trkpt>
      <trkpt lat="50.39406" lon="2.73108">
        <ele>90.02</ele>
        <time>2015-11-13T08:21:02Z</time>
      </trkpt>
      <trkpt lat="50.39406" lon="2.73111">
        <ele>90.02</ele>
        <time>2015-11-13T08:21:03Z</time>
      </trkpt>
      <trkpt lat="50.39407" lon="2.73113">
        <ele>90.5</ele>
        <time>2015-11-13T08:21:04Z</time>
      </trkpt>
      <trkpt lat="50.39408" lon="2.73118">
        <ele>90.5</ele>
        <time>2015-11-13T08:21:07Z</time>
      </trkpt>
      <trkpt lat="50.39409" lon="2.7312">
        <ele>90.98</ele>
        <time>2015-11-13T08:21:08Z</time>
      </trkpt>
      <trkpt lat="50.39422" lon="2.73147">
        <ele>92.42</ele>
        <time>2015-11-13T08:21:24Z</time>
      </trkpt>
      <trkpt lat="50.39437" lon="2.73172">
        <ele>93.87</ele>
        <time>2015-11-13T08:21:38Z</time>
      </trkpt>
      <trkpt lat="50.39444" lon="2.73186">
        <ele>94.35</ele>
        <time>2015-11-13T08:21:46Z</time>
      </trkpt>
      <trkpt lat="50.39445" lon="2.73187">
        <ele>94.35</ele>
        <time>2015-11-13T08:21:47Z</time>
      </trkpt>
      <trkpt lat="50.39457" lon="2.73211">
        <ele>96.75</ele>
        <time>2015-11-13T08:22:03Z</time>
      </trkpt>
      <trkpt lat="50.39464" lon="2.73225">
        <ele>97.71</ele>
        <time>2015-11-13T08:22:16Z</time>
      </trkpt>
      <trkpt lat="50.39463" lon="2.73226">
        <ele>97.71</ele>
        <time>2015-11-13T08:22:33Z</time>
      </trkpt>
      <trkpt lat="50.39462" lon="2.73223">
        <ele>96.27</ele>
        <time>2015-11-13T08:23:02Z</time>
      </trkpt>
      <trkpt lat="50.39462" lon="2.73219">
        <ele>97.71</ele>
        <time>2015-11-13T08:23:19Z</time>
      </trkpt>
      <trkpt lat="50.39464" lon="2.73225">
        <ele>96.75</ele>
        <time>2015-11-13T08:23:50Z</time>
      </trkpt>
      <trkpt lat="50.39463" lon="2.73222">
        <ele>96.75</ele>
        <time>2015-11-13T08:24:30Z</time>
      </trkpt>
      <trkpt lat="50.39467" lon="2.73228">
        <ele>96.75</ele>
        <time>2015-11-13T08:24:36Z</time>
      </trkpt>
      <trkpt lat="50.39473" lon="2.73239">
        <ele>97.71</ele>
        <time>2015-11-13T08:24:47Z</time>
      </trkpt>
      <trkpt lat="50.39476" lon="2.73242">
        <ele>97.71</ele>
        <time>2015-11-13T08:24:51Z</time>
      </trkpt>
      <trkpt lat="50.39493" lon="2.73269">
        <ele>100.11</ele>
        <time>2015-11-13T08:25:11Z</time>
      </trkpt>
      <trkpt lat="50.39511" lon="2.73299">
        <ele>100.6</ele>
        <time>2015-11-13T08:25:29Z</time>
      </trkpt>
      <trkpt lat="50.39511" lon="2.733">
        <ele>100.6</ele>
        <time>2015-11-13T08:25:30Z</time>
      </trkpt>
      <trkpt lat="50.3953" lon="2.7332">
        <ele>100.11</ele>
        <time>2015-11-13T08:25:49Z</time>
      </trkpt>
      <trkpt lat="50.39546" lon="2.7334">
        <ele>99.63</ele>
        <time>2015-11-13T08:26:04Z</time>
      </trkpt>
      <trkpt lat="50.39563" lon="2.73363">
        <ele>98.19</ele>
        <time>2015-11-13T08:26:20Z</time>
      </trkpt>
      <trkpt lat="50.39568" lon="2.73369">
        <ele>97.71</ele>
        <time>2015-11-13T08:26:24Z</time>
      </trkpt>
      <trkpt lat="50.39572" lon="2.73375">
        <ele>97.23</ele>
        <time>2015-11-13T08:26:28Z</time>
      </trkpt>
      <trkpt lat="50.39574" lon="2.73376">
        <ele>97.23</ele>
        <time>2015-11-13T08:26:29Z</time>
      </trkpt>
      <trkpt lat="50.39589" lon="2.73395">
        <ele>96.27</ele>
        <time>2015-11-13T08:26:43Z</time>
      </trkpt>
      <trkpt lat="50.39604" lon="2.73416">
        <ele>94.83</ele>
        <time>2015-11-13T08:26:57Z</time>
      </trkpt>
      <trkpt lat="50.39612" lon="2.73427">
        <ele>93.87</ele>
        <time>2015-11-13T08:27:04Z</time>
      </trkpt>
      <trkpt lat="50.39613" lon="2.73429">
        <ele>93.87</ele>
        <time>2015-11-13T08:27:05Z</time>
      </trkpt>
      <trkpt lat="50.39614" lon="2.7343">
        <ele>93.87</ele>
        <time>2015-11-13T08:27:06Z</time>
      </trkpt>
      <trkpt lat="50.39636" lon="2.73455">
        <ele>93.39</ele>
        <time>2015-11-13T08:27:24Z</time>
      </trkpt>
      <trkpt lat="50.39649" lon="2.73471">
        <ele>91.94</ele>
        <time>2015-11-13T08:27:42Z</time>
      </trkpt>
      <trkpt lat="50.39648" lon="2.73469">
        <ele>91.94</ele>
        <time>2015-11-13T08:27:44Z</time>
      </trkpt>
      <trkpt lat="50.39647" lon="2.73468">
        <ele>91.94</ele>
        <time>2015-11-13T08:27:45Z</time>
      </trkpt>
      <trkpt lat="50.39646" lon="2.73467">
        <ele>91.94</ele>
        <time>2015-11-13T08:27:46Z</time>
      </trkpt>
      <trkpt lat="50.39645" lon="2.73465">
        <ele>91.94</ele>
        <time>2015-11-13T08:27:47Z</time>
      </trkpt>
      <trkpt lat="50.39645" lon="2.73464">
        <ele>91.94</ele>
        <time>2015-11-13T08:27:48Z</time>
      </trkpt>
      <trkpt lat="50.39643" lon="2.7346">
        <ele>91.94</ele>
        <time>2015-11-13T08:28:01Z</time>
      </trkpt>
      <trkpt lat="50.39645" lon="2.73459">
        <ele>91.94</ele>
        <time>2015-11-13T08:28:23Z</time>
      </trkpt>
      <trkpt lat="50.39646" lon="2.73458">
        <ele>93.39</ele>
        <time>2015-11-13T08:28:53Z</time>
      </trkpt>
      <trkpt lat="50.3965" lon="2.73455">
        <ele>92.42</ele>
        <time>2015-11-13T08:29:25Z</time>
      </trkpt>
      <trkpt lat="50.39649" lon="2.73458">
        <ele>92.42</ele>
        <time>2015-11-13T08:29:49Z</time>
      </trkpt>
      <trkpt lat="50.39647" lon="2.73459">
        <ele>92.42</ele>
        <time>2015-11-13T08:29:50Z</time>
      </trkpt>
      <trkpt lat="50.39644" lon="2.73459">
        <ele>92.42</ele>
        <time>2015-11-13T08:29:52Z</time>
      </trkpt>
      <trkpt lat="50.39642" lon="2.73459">
        <ele>92.42</ele>
        <time>2015-11-13T08:29:53Z</time>
      </trkpt>
      <trkpt lat="50.39641" lon="2.73458">
        <ele>92.42</ele>
        <time>2015-11-13T08:29:54Z</time>
      </trkpt>
      <trkpt lat="50.39639" lon="2.73457">
        <ele>92.42</ele>
        <time>2015-11-13T08:29:55Z</time>
      </trkpt>
      <trkpt lat="50.39638" lon="2.73456">
        <ele>92.42</ele>
        <time>2015-11-13T08:29:56Z</time>
      </trkpt>
      <trkpt lat="50.39631" lon="2.73446">
        <ele>92.42</ele>
        <time>2015-11-13T08:30:03Z</time>
      </trkpt>
      <trkpt lat="50.3963" lon="2.73445">
        <ele>92.42</ele>
        <time>2015-11-13T08:30:04Z</time>
      </trkpt>
      <trkpt lat="50.39609" lon="2.73423">
        <ele>95.31</ele>
        <time>2015-11-13T08:30:22Z</time>
      </trkpt>
      <trkpt lat="50.39591" lon="2.73401">
        <ele>95.79</ele>
        <time>2015-11-13T08:30:38Z</time>
      </trkpt>
      <trkpt lat="50.3957" lon="2.73371">
        <ele>97.71</ele>
        <time>2015-11-13T08:30:57Z</time>
      </trkpt>
      <trkpt lat="50.39561" lon="2.73359">
        <ele>98.67</ele>
        <time>2015-11-13T08:31:05Z</time>
      </trkpt>
      <trkpt lat="50.3956" lon="2.73358">
        <ele>98.67</ele>
        <time>2015-11-13T08:31:06Z</time>
      </trkpt>
      <trkpt lat="50.39559" lon="2.73356">
        <ele>98.67</ele>
        <time>2015-11-13T08:31:07Z</time>
      </trkpt>
      <trkpt lat="50.39542" lon="2.73337">
        <ele>99.63</ele>
        <time>2015-11-13T08:31:21Z</time>
      </trkpt>
      <trkpt lat="50.39524" lon="2.73316">
        <ele>100.6</ele>
        <time>2015-11-13T08:31:35Z</time>
      </trkpt>
      <trkpt lat="50.39499" lon="2.73308">
        <ele>101.56</ele>
        <time>2015-11-13T08:31:53Z</time>
      </trkpt>
      <trkpt lat="50.39481" lon="2.73329">
        <ele>101.56</ele>
        <time>2015-11-13T08:32:08Z</time>
      </trkpt>
      <trkpt lat="50.39475" lon="2.73336">
        <ele>100.6</ele>
        <time>2015-11-13T08:32:13Z</time>
      </trkpt>
      <trkpt lat="50.39474" lon="2.73337">
        <ele>100.6</ele>
        <time>2015-11-13T08:32:14Z</time>
      </trkpt>
      <trkpt lat="50.39472" lon="2.73338">
        <ele>100.6</ele>
        <time>2015-11-13T08:32:15Z</time>
      </trkpt>
      <trkpt lat="50.3945" lon="2.73364">
        <ele>100.6</ele>
        <time>2015-11-13T08:32:34Z</time>
      </trkpt>
      <trkpt lat="50.39431" lon="2.73385">
        <ele>99.63</ele>
        <time>2015-11-13T08:32:49Z</time>
      </trkpt>
      <trkpt lat="50.39413" lon="2.73392">
        <ele>97.23</ele>
        <time>2015-11-13T08:33:02Z</time>
      </trkpt>
      <trkpt lat="50.39411" lon="2.73391">
        <ele>97.23</ele>
        <time>2015-11-13T08:33:03Z</time>
      </trkpt>
      <trkpt lat="50.3941" lon="2.7339">
        <ele>96.75</ele>
        <time>2015-11-13T08:33:04Z</time>
      </trkpt>
      <trkpt lat="50.39409" lon="2.73389">
        <ele>96.75</ele>
        <time>2015-11-13T08:33:05Z</time>
      </trkpt>
      <trkpt lat="50.39407" lon="2.73389">
        <ele>96.75</ele>
        <time>2015-11-13T08:33:06Z</time>
      </trkpt>
      <trkpt lat="50.39406" lon="2.73389">
        <ele>96.27</ele>
        <time>2015-11-13T08:33:07Z</time>
      </trkpt>
      <trkpt lat="50.39405" lon="2.73389">
        <ele>96.27</ele>
        <time>2015-11-13T08:33:08Z</time>
      </trkpt>
      <trkpt lat="50.39403" lon="2.73389">
        <ele>96.27</ele>
        <time>2015-11-13T08:33:09Z</time>
      </trkpt>
      <trkpt lat="50.39402" lon="2.73389">
        <ele>96.27</ele>
        <time>2015-11-13T08:33:10Z</time>
      </trkpt>
      <trkpt lat="50.394" lon="2.73389">
        <ele>96.27</ele>
        <time>2015-11-13T08:33:11Z</time>
      </trkpt>
      <trkpt lat="50.39399" lon="2.73389">
        <ele>96.27</ele>
        <time>2015-11-13T08:33:12Z</time>
      </trkpt>
      <trkpt lat="50.39398" lon="2.73389">
        <ele>95.79</ele>
        <time>2015-11-13T08:33:13Z</time>
      </trkpt>
      <trkpt lat="50.39396" lon="2.7339">
        <ele>95.79</ele>
        <time>2015-11-13T08:33:14Z</time>
      </trkpt>
      <trkpt lat="50.39395" lon="2.7339">
        <ele>95.79</ele>
        <time>2015-11-13T08:33:15Z</time>
      </trkpt>
      <trkpt lat="50.39393" lon="2.7339">
        <ele>95.79</ele>
        <time>2015-11-13T08:33:16Z</time>
      </trkpt>
      <trkpt lat="50.39382" lon="2.73391">
        <ele>94.35</ele>
        <time>2015-11-13T08:33:24Z</time>
      </trkpt>
      <trkpt lat="50.3938" lon="2.73391">
        <ele>94.35</ele>
        <time>2015-11-13T08:33:25Z</time>
      </trkpt>
      <trkpt lat="50.39359" lon="2.7339">
        <ele>92.9</ele>
        <time>2015-11-13T08:33:40Z</time>
      </trkpt>
      <trkpt lat="50.39356" lon="2.7339">
        <ele>92.42</ele>
        <time>2015-11-13T08:33:42Z</time>
      </trkpt>
      <trkpt lat="50.39354" lon="2.7339">
        <ele>91.94</ele>
        <time>2015-11-13T08:33:43Z</time>
      </trkpt>
      <trkpt lat="50.39353" lon="2.7339">
        <ele>91.94</ele>
        <time>2015-11-13T08:33:44Z</time>
      </trkpt>
      <trkpt lat="50.39351" lon="2.7339">
        <ele>91.94</ele>
        <time>2015-11-13T08:33:45Z</time>
      </trkpt>
      <trkpt lat="50.3935" lon="2.7339">
        <ele>91.46</ele>
        <time>2015-11-13T08:33:46Z</time>
      </trkpt>
      <trkpt lat="50.39348" lon="2.7339">
        <ele>91.46</ele>
        <time>2015-11-13T08:33:47Z</time>
      </trkpt>
      <trkpt lat="50.39347" lon="2.73391">
        <ele>91.46</ele>
        <time>2015-11-13T08:33:48Z</time>
      </trkpt>
      <trkpt lat="50.39327" lon="2.73392">
        <ele>90.5</ele>
        <time>2015-11-13T08:34:01Z</time>
      </trkpt>
      <trkpt lat="50.39318" lon="2.73395">
        <ele>89.06</ele>
        <time>2015-11-13T08:34:07Z</time>
      </trkpt>
      <trkpt lat="50.39317" lon="2.73394">
        <ele>89.06</ele>
        <time>2015-11-13T08:34:08Z</time>
      </trkpt>
      <trkpt lat="50.39315" lon="2.73394">
        <ele>89.06</ele>
        <time>2015-11-13T08:34:09Z</time>
      </trkpt>
      <trkpt lat="50.39296" lon="2.7339">
        <ele>88.1</ele>
        <time>2015-11-13T08:34:22Z</time>
      </trkpt>
      <trkpt lat="50.39293" lon="2.7339">
        <ele>88.1</ele>
        <time>2015-11-13T08:34:24Z</time>
      </trkpt>
      <trkpt lat="50.39291" lon="2.73391">
        <ele>87.62</ele>
        <time>2015-11-13T08:34:25Z</time>
      </trkpt>
      <trkpt lat="50.3929" lon="2.73392">
        <ele>87.62</ele>
        <time>2015-11-13T08:34:26Z</time>
      </trkpt>
      <trkpt lat="50.39288" lon="2.73392">
        <ele>87.62</ele>
        <time>2015-11-13T08:34:27Z</time>
      </trkpt>
      <trkpt lat="50.39286" lon="2.73392">
        <ele>87.62</ele>
        <time>2015-11-13T08:34:28Z</time>
      </trkpt>
      <trkpt lat="50.39264" lon="2.7339">
        <ele>85.69</ele>
        <time>2015-11-13T08:34:43Z</time>
      </trkpt>
      <trkpt lat="50.39262" lon="2.73391">
        <ele>85.69</ele>
        <time>2015-11-13T08:34:44Z</time>
      </trkpt>
      <trkpt lat="50.39261" lon="2.73392">
        <ele>85.69</ele>
        <time>2015-11-13T08:34:45Z</time>
      </trkpt>
      <trkpt lat="50.39258" lon="2.73393">
        <ele>85.69</ele>
        <time>2015-11-13T08:34:47Z</time>
      </trkpt>
      <trkpt lat="50.39256" lon="2.73393">
        <ele>85.69</ele>
        <time>2015-11-13T08:34:48Z</time>
      </trkpt>
      <trkpt lat="50.39255" lon="2.73393">
        <ele>85.69</ele>
        <time>2015-11-13T08:34:49Z</time>
      </trkpt>
      <trkpt lat="50.39235" lon="2.73392">
        <ele>83.77</ele>
        <time>2015-11-13T08:35:02Z</time>
      </trkpt>
      <trkpt lat="50.39234" lon="2.73392">
        <ele>83.77</ele>
        <time>2015-11-13T08:35:03Z</time>
      </trkpt>
      <trkpt lat="50.39215" lon="2.73391">
        <ele>82.33</ele>
        <time>2015-11-13T08:35:16Z</time>
      </trkpt>
      <trkpt lat="50.3919" lon="2.73391">
        <ele>80.41</ele>
        <time>2015-11-13T08:35:32Z</time>
      </trkpt>
      <trkpt lat="50.39181" lon="2.73392">
        <ele>80.41</ele>
        <time>2015-11-13T08:35:38Z</time>
      </trkpt>
      <trkpt lat="50.3918" lon="2.73393">
        <ele>80.41</ele>
        <time>2015-11-13T08:35:39Z</time>
      </trkpt>
      <trkpt lat="50.39178" lon="2.73393">
        <ele>80.41</ele>
        <time>2015-11-13T08:35:40Z</time>
      </trkpt>
      <trkpt lat="50.39177" lon="2.73393">
        <ele>80.41</ele>
        <time>2015-11-13T08:35:41Z</time>
      </trkpt>
      <trkpt lat="50.39175" lon="2.73392">
        <ele>80.41</ele>
        <time>2015-11-13T08:35:42Z</time>
      </trkpt>
      <trkpt lat="50.39174" lon="2.73391">
        <ele>79.93</ele>
        <time>2015-11-13T08:35:43Z</time>
      </trkpt>
      <trkpt lat="50.39173" lon="2.7339">
        <ele>79.93</ele>
        <time>2015-11-13T08:35:44Z</time>
      </trkpt>
      <trkpt lat="50.39171" lon="2.73389">
        <ele>79.93</ele>
        <time>2015-11-13T08:35:45Z</time>
      </trkpt>
      <trkpt lat="50.39169" lon="2.73389">
        <ele>79.93</ele>
        <time>2015-11-13T08:35:47Z</time>
      </trkpt>
      <trkpt lat="50.39167" lon="2.73389">
        <ele>79.45</ele>
        <time>2015-11-13T08:35:48Z</time>
      </trkpt>
      <trkpt lat="50.39141" lon="2.73391">
        <ele>77.52</ele>
        <time>2015-11-13T08:36:06Z</time>
      </trkpt>
      <trkpt lat="50.39122" lon="2.73391">
        <ele>75.6</ele>
        <time>2015-11-13T08:36:19Z</time>
      </trkpt>
      <trkpt lat="50.39104" lon="2.73391">
        <ele>75.12</ele>
        <time>2015-11-13T08:36:31Z</time>
      </trkpt>
      <trkpt lat="50.391" lon="2.73392">
        <ele>74.64</ele>
        <time>2015-11-13T08:36:34Z</time>
      </trkpt>
      <trkpt lat="50.39099" lon="2.73392">
        <ele>74.64</ele>
        <time>2015-11-13T08:36:35Z</time>
      </trkpt>
      <trkpt lat="50.39097" lon="2.73392">
        <ele>74.16</ele>
        <time>2015-11-13T08:36:36Z</time>
      </trkpt>
      <trkpt lat="50.39095" lon="2.73392">
        <ele>74.16</ele>
        <time>2015-11-13T08:36:37Z</time>
      </trkpt>
      <trkpt lat="50.39094" lon="2.73393">
        <ele>73.68</ele>
        <time>2015-11-13T08:36:38Z</time>
      </trkpt>
      <trkpt lat="50.39088" lon="2.73396">
        <ele>73.68</ele>
        <time>2015-11-13T08:36:43Z</time>
      </trkpt>
      <trkpt lat="50.39087" lon="2.73398">
        <ele>73.68</ele>
        <time>2015-11-13T08:36:44Z</time>
      </trkpt>
      <trkpt lat="50.39087" lon="2.734">
        <ele>73.68</ele>
        <time>2015-11-13T08:36:45Z</time>
      </trkpt>
      <trkpt lat="50.39086" lon="2.73402">
        <ele>73.68</ele>
        <time>2015-11-13T08:36:46Z</time>
      </trkpt>
      <trkpt lat="50.39085" lon="2.73404">
        <ele>73.68</ele>
        <time>2015-11-13T08:36:47Z</time>
      </trkpt>
      <trkpt lat="50.39075" lon="2.7343">
        <ele>72.72</ele>
        <time>2015-11-13T08:37:00Z</time>
      </trkpt>
      <trkpt lat="50.3907" lon="2.73455">
        <ele>72.72</ele>
        <time>2015-11-13T08:37:11Z</time>
      </trkpt>
      <trkpt lat="50.3907" lon="2.73498">
        <ele>72.72</ele>
        <time>2015-11-13T08:37:31Z</time>
      </trkpt>
      <trkpt lat="50.39069" lon="2.73542">
        <ele>71.76</ele>
        <time>2015-11-13T08:37:49Z</time>
      </trkpt>
      <trkpt lat="50.39068" lon="2.73578">
        <ele>71.27</ele>
        <time>2015-11-13T08:38:04Z</time>
      </trkpt>
      <trkpt lat="50.39067" lon="2.73579">
        <ele>71.27</ele>
        <time>2015-11-13T08:38:05Z</time>
      </trkpt>
      <trkpt lat="50.39066" lon="2.73581">
        <ele>71.27</ele>
        <time>2015-11-13T08:38:06Z</time>
      </trkpt>
      <trkpt lat="50.39065" lon="2.73582">
        <ele>71.27</ele>
        <time>2015-11-13T08:38:07Z</time>
      </trkpt>
      <trkpt lat="50.39064" lon="2.73584">
        <ele>71.27</ele>
        <time>2015-11-13T08:38:08Z</time>
      </trkpt>
      <trkpt lat="50.39063" lon="2.73585">
        <ele>71.27</ele>
        <time>2015-11-13T08:38:09Z</time>
      </trkpt>
      <trkpt lat="50.39054" lon="2.73603">
        <ele>71.27</ele>
        <time>2015-11-13T08:38:21Z</time>
      </trkpt>
      <trkpt lat="50.39048" lon="2.73603">
        <ele>71.27</ele>
        <time>2015-11-13T08:38:33Z</time>
      </trkpt>
      <trkpt lat="50.39047" lon="2.73594">
        <ele>71.27</ele>
        <time>2015-11-13T08:38:46Z</time>
      </trkpt>
      <trkpt lat="50.39044" lon="2.73592">
        <ele>71.27</ele>
        <time>2015-11-13T08:39:02Z</time>
      </trkpt>
      <trkpt lat="50.39044" lon="2.73594">
        <ele>70.79</ele>
        <time>2015-11-13T08:39:20Z</time>
      </trkpt>
      <trkpt lat="50.39043" lon="2.73598">
        <ele>70.79</ele>
        <time>2015-11-13T08:39:34Z</time>
      </trkpt>
      <trkpt lat="50.39047" lon="2.73594">
        <ele>70.79</ele>
        <time>2015-11-13T08:39:53Z</time>
      </trkpt>
      <trkpt lat="50.39045" lon="2.73597">
        <ele>69.83</ele>
        <time>2015-11-13T08:40:13Z</time>
      </trkpt>
      <trkpt lat="50.39045" lon="2.73601">
        <ele>69.83</ele>
        <time>2015-11-13T08:40:38Z</time>
      </trkpt>
      <trkpt lat="50.39046" lon="2.73599">
        <ele>71.27</ele>
        <time>2015-11-13T08:40:41Z</time>
      </trkpt>
      <trkpt lat="50.39044" lon="2.73602">
        <ele>71.76</ele>
        <time>2015-11-13T08:41:01Z</time>
      </trkpt>
      <trkpt lat="50.39047" lon="2.73597">
        <ele>71.76</ele>
        <time>2015-11-13T08:41:22Z</time>
      </trkpt>
      <trkpt lat="50.3905" lon="2.73593">
        <ele>72.24</ele>
        <time>2015-11-13T08:41:36Z</time>
      </trkpt>
      <trkpt lat="50.39052" lon="2.73587">
        <ele>72.24</ele>
        <time>2015-11-13T08:41:50Z</time>
      </trkpt>
      <trkpt lat="50.3906" lon="2.73581">
        <ele>72.72</ele>
        <time>2015-11-13T08:42:01Z</time>
      </trkpt>
      <trkpt lat="50.39061" lon="2.73575">
        <ele>72.72</ele>
        <time>2015-11-13T08:42:04Z</time>
      </trkpt>
      <trkpt lat="50.39059" lon="2.73546">
        <ele>73.2</ele>
        <time>2015-11-13T08:42:22Z</time>
      </trkpt>
      <trkpt lat="50.39059" lon="2.73542">
        <ele>73.68</ele>
        <time>2015-11-13T08:42:24Z</time>
      </trkpt>
      <trkpt lat="50.39059" lon="2.73508">
        <ele>73.68</ele>
        <time>2015-11-13T08:42:42Z</time>
      </trkpt>
      <trkpt lat="50.39059" lon="2.7347">
        <ele>74.16</ele>
        <time>2015-11-13T08:43:02Z</time>
      </trkpt>
      <trkpt lat="50.39058" lon="2.73448">
        <ele>74.64</ele>
        <time>2015-11-13T08:43:13Z</time>
      </trkpt>
      <trkpt lat="50.39054" lon="2.73442">
        <ele>74.64</ele>
        <time>2015-11-13T08:43:17Z</time>
      </trkpt>
      <trkpt lat="50.39036" lon="2.73429">
        <ele>74.64</ele>
        <time>2015-11-13T08:43:31Z</time>
      </trkpt>
      <trkpt lat="50.39008" lon="2.73416">
        <ele>74.64</ele>
        <time>2015-11-13T08:43:51Z</time>
      </trkpt>
      <trkpt lat="50.39002" lon="2.73413">
        <ele>74.64</ele>
        <time>2015-11-13T08:43:55Z</time>
      </trkpt>
      <trkpt lat="50.38994" lon="2.73408">
        <ele>74.64</ele>
        <time>2015-11-13T08:44:01Z</time>
      </trkpt>
      <trkpt lat="50.38967" lon="2.7339">
        <ele>74.16</ele>
        <time>2015-11-13T08:44:23Z</time>
      </trkpt>
      <trkpt lat="50.3895" lon="2.73377">
        <ele>74.16</ele>
        <time>2015-11-13T08:44:35Z</time>
      </trkpt>
      <trkpt lat="50.38928" lon="2.73361">
        <ele>74.16</ele>
        <time>2015-11-13T08:44:51Z</time>
      </trkpt>
      <trkpt lat="50.38914" lon="2.73347">
        <ele>74.16</ele>
        <time>2015-11-13T08:45:03Z</time>
      </trkpt>
      <trkpt lat="50.38899" lon="2.73329">
        <ele>74.16</ele>
        <time>2015-11-13T08:45:16Z</time>
      </trkpt>
      <trkpt lat="50.38885" lon="2.73302">
        <ele>74.16</ele>
        <time>2015-11-13T08:45:31Z</time>
      </trkpt>
      <trkpt lat="50.38874" lon="2.73279">
        <ele>74.16</ele>
        <time>2015-11-13T08:45:43Z</time>
      </trkpt>
      <trkpt lat="50.38874" lon="2.73275">
        <ele>74.16</ele>
        <time>2015-11-13T08:45:53Z</time>
      </trkpt>
      <trkpt lat="50.3887" lon="2.73269">
        <ele>74.16</ele>
        <time>2015-11-13T08:45:58Z</time>
      </trkpt>
      <trkpt lat="50.38855" lon="2.73239">
        <ele>74.16</ele>
        <time>2015-11-13T08:46:15Z</time>
      </trkpt>
      <trkpt lat="50.38838" lon="2.73206">
        <ele>74.16</ele>
        <time>2015-11-13T08:46:33Z</time>
      </trkpt>
      <trkpt lat="50.38823" lon="2.73176">
        <ele>74.16</ele>
        <time>2015-11-13T08:46:51Z</time>
      </trkpt>
      <trkpt lat="50.3882" lon="2.73175">
        <ele>74.16</ele>
        <time>2015-11-13T08:47:05Z</time>
      </trkpt>
      <trkpt lat="50.38819" lon="2.73174">
        <ele>74.16</ele>
        <time>2015-11-13T08:47:28Z</time>
      </trkpt>
      <trkpt lat="50.3882" lon="2.73172">
        <ele>74.16</ele>
        <time>2015-11-13T08:47:42Z</time>
      </trkpt>
      <trkpt lat="50.38819" lon="2.73173">
        <ele>74.16</ele>
        <time>2015-11-13T08:48:11Z</time>
      </trkpt>
      <trkpt lat="50.38817" lon="2.73168">
        <ele>74.16</ele>
        <time>2015-11-13T08:48:40Z</time>
      </trkpt>
      <trkpt lat="50.38816" lon="2.73167">
        <ele>74.16</ele>
        <time>2015-11-13T08:49:12Z</time>
      </trkpt>
      <trkpt lat="50.38814" lon="2.73166">
        <ele>74.16</ele>
        <time>2015-11-13T08:49:50Z</time>
      </trkpt>
      <trkpt lat="50.38818" lon="2.73169">
        <ele>74.16</ele>
        <time>2015-11-13T08:50:12Z</time>
      </trkpt>
      <trkpt lat="50.38818" lon="2.73166">
        <ele>74.16</ele>
        <time>2015-11-13T08:50:14Z</time>
      </trkpt>
      <trkpt lat="50.38808" lon="2.73142">
        <ele>74.16</ele>
        <time>2015-11-13T08:50:32Z</time>
      </trkpt>
      <trkpt lat="50.38795" lon="2.73115">
        <ele>74.16</ele>
        <time>2015-11-13T08:50:48Z</time>
      </trkpt>
      <trkpt lat="50.38784" lon="2.73091">
        <ele>74.16</ele>
        <time>2015-11-13T08:51:01Z</time>
      </trkpt>
      <trkpt lat="50.38775" lon="2.73075">
        <ele>75.12</ele>
        <time>2015-11-13T08:51:11Z</time>
      </trkpt>
      <trkpt lat="50.38768" lon="2.73055">
        <ele>76.56</ele>
        <time>2015-11-13T08:51:22Z</time>
      </trkpt>
      <trkpt lat="50.38754" lon="2.73026">
        <ele>76.56</ele>
        <time>2015-11-13T08:51:39Z</time>
      </trkpt>
      <trkpt lat="50.38741" lon="2.72995">
        <ele>76.56</ele>
        <time>2015-11-13T08:51:55Z</time>
      </trkpt>
      <trkpt lat="50.38734" lon="2.72973">
        <ele>76.56</ele>
        <time>2015-11-13T08:52:06Z</time>
      </trkpt>
      <trkpt lat="50.38727" lon="2.72941">
        <ele>76.56</ele>
        <time>2015-11-13T08:52:21Z</time>
      </trkpt>
      <trkpt lat="50.38725" lon="2.72903">
        <ele>77.04</ele>
        <time>2015-11-13T08:52:38Z</time>
      </trkpt>
      <trkpt lat="50.38728" lon="2.72858">
        <ele>77.52</ele>
        <time>2015-11-13T08:52:56Z</time>
      </trkpt>
      <trkpt lat="50.3873" lon="2.72819">
        <ele>78</ele>
        <time>2015-11-13T08:53:14Z</time>
      </trkpt>
      <trkpt lat="50.38724" lon="2.7278">
        <ele>78.97</ele>
        <time>2015-11-13T08:53:33Z</time>
      </trkpt>
      <trkpt lat="50.38717" lon="2.72745">
        <ele>78.97</ele>
        <time>2015-11-13T08:53:50Z</time>
      </trkpt>
      <trkpt lat="50.38715" lon="2.72745">
        <ele>79.45</ele>
        <time>2015-11-13T08:54:01Z</time>
      </trkpt>
      <trkpt lat="50.38713" lon="2.7274">
        <ele>79.45</ele>
        <time>2015-11-13T08:54:17Z</time>
      </trkpt>
      <trkpt lat="50.3871" lon="2.72744">
        <ele>79.45</ele>
        <time>2015-11-13T08:54:44Z</time>
      </trkpt>
      <trkpt lat="50.38709" lon="2.72738">
        <ele>79.45</ele>
        <time>2015-11-13T08:55:19Z</time>
      </trkpt>
      <trkpt lat="50.38712" lon="2.7274">
        <ele>79.45</ele>
        <time>2015-11-13T08:56:00Z</time>
      </trkpt>
      <trkpt lat="50.38715" lon="2.72739">
        <ele>79.45</ele>
        <time>2015-11-13T08:56:31Z</time>
      </trkpt>
      <trkpt lat="50.38713" lon="2.72734">
        <ele>79.45</ele>
        <time>2015-11-13T08:56:36Z</time>
      </trkpt>
      <trkpt lat="50.38708" lon="2.72714">
        <ele>79.45</ele>
        <time>2015-11-13T08:56:49Z</time>
      </trkpt>
      <trkpt lat="50.387" lon="2.72677">
        <ele>80.41</ele>
        <time>2015-11-13T08:57:08Z</time>
      </trkpt>
      <trkpt lat="50.38693" lon="2.72654">
        <ele>80.41</ele>
        <time>2015-11-13T08:57:20Z</time>
      </trkpt>
      <trkpt lat="50.38686" lon="2.72612">
        <ele>80.41</ele>
        <time>2015-11-13T08:57:38Z</time>
      </trkpt>
      <trkpt lat="50.38685" lon="2.72602">
        <ele>80.89</ele>
        <time>2015-11-13T08:57:42Z</time>
      </trkpt>
      <trkpt lat="50.38685" lon="2.72593">
        <ele>80.89</ele>
        <time>2015-11-13T08:57:46Z</time>
      </trkpt>
      <trkpt lat="50.38684" lon="2.72587">
        <ele>80.89</ele>
        <time>2015-11-13T08:57:49Z</time>
      </trkpt>
      <trkpt lat="50.38685" lon="2.72579">
        <ele>81.37</ele>
        <time>2015-11-13T08:57:53Z</time>
      </trkpt>
      <trkpt lat="50.38685" lon="2.72573">
        <ele>81.37</ele>
        <time>2015-11-13T08:57:55Z</time>
      </trkpt>
      <trkpt lat="50.38687" lon="2.72552">
        <ele>81.85</ele>
        <time>2015-11-13T08:58:08Z</time>
      </trkpt>
      <trkpt lat="50.38686" lon="2.7255">
        <ele>81.85</ele>
        <time>2015-11-13T08:58:09Z</time>
      </trkpt>
      <trkpt lat="50.38684" lon="2.72529">
        <ele>81.85</ele>
        <time>2015-11-13T08:58:20Z</time>
      </trkpt>
      <trkpt lat="50.38685" lon="2.72523">
        <ele>81.85</ele>
        <time>2015-11-13T08:58:22Z</time>
      </trkpt>
      <trkpt lat="50.38678" lon="2.72484">
        <ele>81.85</ele>
        <time>2015-11-13T08:58:38Z</time>
      </trkpt>
      <trkpt lat="50.38669" lon="2.72449">
        <ele>81.85</ele>
        <time>2015-11-13T08:58:55Z</time>
      </trkpt>
      <trkpt lat="50.38656" lon="2.72419">
        <ele>81.85</ele>
        <time>2015-11-13T08:59:12Z</time>
      </trkpt>
      <trkpt lat="50.38636" lon="2.72386">
        <ele>81.85</ele>
        <time>2015-11-13T08:59:31Z</time>
      </trkpt>
      <trkpt lat="50.38617" lon="2.72358">
        <ele>81.85</ele>
        <time>2015-11-13T08:59:49Z</time>
      </trkpt>
      <trkpt lat="50.38598" lon="2.72323">
        <ele>81.85</ele>
        <time>2015-11-13T09:00:08Z</time>
      </trkpt>
      <trkpt lat="50.38582" lon="2.72287">
        <ele>81.85</ele>
        <time>2015-11-13T09:00:26Z</time>
      </trkpt>
      <trkpt lat="50.38566" lon="2.72251">
        <ele>81.85</ele>
        <time>2015-11-13T09:00:44Z</time>
      </trkpt>
      <trkpt lat="50.38554" lon="2.72223">
        <ele>81.85</ele>
        <time>2015-11-13T09:00:59Z</time>
      </trkpt>
      <trkpt lat="50.38541" lon="2.72195">
        <ele>82.33</ele>
        <time>2015-11-13T09:01:18Z</time>
      </trkpt>
      <trkpt lat="50.3854" lon="2.72197">
        <ele>81.85</ele>
        <time>2015-11-13T09:01:33Z</time>
      </trkpt>
      <trkpt lat="50.38539" lon="2.72195">
        <ele>81.85</ele>
        <time>2015-11-13T09:01:43Z</time>
      </trkpt>
      <trkpt lat="50.3854" lon="2.72193">
        <ele>81.85</ele>
        <time>2015-11-13T09:01:53Z</time>
      </trkpt>
      <trkpt lat="50.38541" lon="2.72191">
        <ele>81.85</ele>
        <time>2015-11-13T09:02:13Z</time>
      </trkpt>
      <trkpt lat="50.38542" lon="2.72195">
        <ele>81.85</ele>
        <time>2015-11-13T09:02:40Z</time>
      </trkpt>
      <trkpt lat="50.38539" lon="2.72195">
        <ele>81.85</ele>
        <time>2015-11-13T09:03:02Z</time>
      </trkpt>
      <trkpt lat="50.38538" lon="2.72197">
        <ele>81.85</ele>
        <time>2015-11-13T09:03:23Z</time>
      </trkpt>
      <trkpt lat="50.38538" lon="2.72194">
        <ele>81.85</ele>
        <time>2015-11-13T09:03:43Z</time>
      </trkpt>
      <trkpt lat="50.38538" lon="2.72191">
        <ele>80.89</ele>
        <time>2015-11-13T09:03:58Z</time>
      </trkpt>
      <trkpt lat="50.38541" lon="2.72195">
        <ele>80.89</ele>
        <time>2015-11-13T09:04:21Z</time>
      </trkpt>
      <trkpt lat="50.3854" lon="2.72192">
        <ele>80.89</ele>
        <time>2015-11-13T09:04:39Z</time>
      </trkpt>
      <trkpt lat="50.38539" lon="2.72191">
        <ele>80.89</ele>
        <time>2015-11-13T09:04:57Z</time>
      </trkpt>
      <trkpt lat="50.3854" lon="2.72194">
        <ele>80.89</ele>
        <time>2015-11-13T09:05:15Z</time>
      </trkpt>
      <trkpt lat="50.38541" lon="2.72193">
        <ele>80.89</ele>
        <time>2015-11-13T09:05:35Z</time>
      </trkpt>
      <trkpt lat="50.3854" lon="2.72192">
        <ele>80.89</ele>
        <time>2015-11-13T09:05:39Z</time>
      </trkpt>
      <trkpt lat="50.38541" lon="2.72187">
        <ele>80.89</ele>
        <time>2015-11-13T09:05:50Z</time>
      </trkpt>
      <trkpt lat="50.38539" lon="2.72181">
        <ele>81.85</ele>
        <time>2015-11-13T09:05:56Z</time>
      </trkpt>
      <trkpt lat="50.38528" lon="2.7215">
        <ele>82.33</ele>
        <time>2015-11-13T09:06:15Z</time>
      </trkpt>
      <trkpt lat="50.38517" lon="2.72122">
        <ele>82.33</ele>
        <time>2015-11-13T09:06:32Z</time>
      </trkpt>
      <trkpt lat="50.38508" lon="2.72094">
        <ele>82.33</ele>
        <time>2015-11-13T09:06:47Z</time>
      </trkpt>
      <trkpt lat="50.38502" lon="2.72082">
        <ele>82.33</ele>
        <time>2015-11-13T09:06:53Z</time>
      </trkpt>
      <trkpt lat="50.38493" lon="2.72055">
        <ele>83.77</ele>
        <time>2015-11-13T09:07:07Z</time>
      </trkpt>
      <trkpt lat="50.38481" lon="2.72027">
        <ele>82.81</ele>
        <time>2015-11-13T09:07:22Z</time>
      </trkpt>
      <trkpt lat="50.38465" lon="2.71986">
        <ele>82.81</ele>
        <time>2015-11-13T09:07:43Z</time>
      </trkpt>
      <trkpt lat="50.38454" lon="2.71943">
        <ele>83.77</ele>
        <time>2015-11-13T09:08:02Z</time>
      </trkpt>
      <trkpt lat="50.38453" lon="2.71936">
        <ele>84.25</ele>
        <time>2015-11-13T09:08:18Z</time>
      </trkpt>
      <trkpt lat="50.38452" lon="2.71933">
        <ele>84.25</ele>
        <time>2015-11-13T09:08:20Z</time>
      </trkpt>
      <trkpt lat="50.38446" lon="2.71896">
        <ele>84.25</ele>
        <time>2015-11-13T09:08:36Z</time>
      </trkpt>
      <trkpt lat="50.38441" lon="2.71861">
        <ele>85.69</ele>
        <time>2015-11-13T09:08:51Z</time>
      </trkpt>
      <trkpt lat="50.38437" lon="2.71828">
        <ele>87.14</ele>
        <time>2015-11-13T09:09:08Z</time>
      </trkpt>
      <trkpt lat="50.38432" lon="2.71782">
        <ele>87.62</ele>
        <time>2015-11-13T09:09:26Z</time>
      </trkpt>
      <trkpt lat="50.38429" lon="2.71756">
        <ele>88.1</ele>
        <time>2015-11-13T09:09:38Z</time>
      </trkpt>
      <trkpt lat="50.38425" lon="2.71721">
        <ele>89.06</ele>
        <time>2015-11-13T09:09:56Z</time>
      </trkpt>
      <trkpt lat="50.3842" lon="2.71704">
        <ele>90.02</ele>
        <time>2015-11-13T09:10:11Z</time>
      </trkpt>
      <trkpt lat="50.3842" lon="2.71701">
        <ele>90.02</ele>
        <time>2015-11-13T09:10:24Z</time>
      </trkpt>
      <trkpt lat="50.38418" lon="2.71703">
        <ele>90.02</ele>
        <time>2015-11-13T09:10:44Z</time>
      </trkpt>
      <trkpt lat="50.3842" lon="2.71703">
        <ele>90.02</ele>
        <time>2015-11-13T09:10:59Z</time>
      </trkpt>
      <trkpt lat="50.38419" lon="2.71702">
        <ele>90.02</ele>
        <time>2015-11-13T09:11:08Z</time>
      </trkpt>
      <trkpt lat="50.38422" lon="2.71704">
        <ele>90.02</ele>
        <time>2015-11-13T09:11:20Z</time>
      </trkpt>
      <trkpt lat="50.38421" lon="2.71706">
        <ele>90.5</ele>
        <time>2015-11-13T09:11:35Z</time>
      </trkpt>
      <trkpt lat="50.38417" lon="2.71702">
        <ele>90.5</ele>
        <time>2015-11-13T09:11:56Z</time>
      </trkpt>
      <trkpt lat="50.38418" lon="2.71697">
        <ele>90.5</ele>
        <time>2015-11-13T09:12:11Z</time>
      </trkpt>
      <trkpt lat="50.38418" lon="2.71702">
        <ele>90.5</ele>
        <time>2015-11-13T09:12:26Z</time>
      </trkpt>
      <trkpt lat="50.38417" lon="2.71705">
        <ele>90.5</ele>
        <time>2015-11-13T09:12:52Z</time>
      </trkpt>
      <trkpt lat="50.38417" lon="2.71702">
        <ele>89.06</ele>
        <time>2015-11-13T09:13:15Z</time>
      </trkpt>
      <trkpt lat="50.3842" lon="2.71703">
        <ele>89.06</ele>
        <time>2015-11-13T09:13:27Z</time>
      </trkpt>
      <trkpt lat="50.3842" lon="2.71704">
        <ele>89.06</ele>
        <time>2015-11-13T09:13:40Z</time>
      </trkpt>
      <trkpt lat="50.38418" lon="2.71705">
        <ele>89.06</ele>
        <time>2015-11-13T09:13:54Z</time>
      </trkpt>
      <trkpt lat="50.38416" lon="2.71704">
        <ele>90.5</ele>
        <time>2015-11-13T09:14:24Z</time>
      </trkpt>
      <trkpt lat="50.38413" lon="2.71705">
        <ele>90.98</ele>
        <time>2015-11-13T09:14:56Z</time>
      </trkpt>
      <trkpt lat="50.38416" lon="2.71705">
        <ele>90.02</ele>
        <time>2015-11-13T09:15:20Z</time>
      </trkpt>
      <trkpt lat="50.38418" lon="2.71703">
        <ele>90.02</ele>
        <time>2015-11-13T09:15:37Z</time>
      </trkpt>
      <trkpt lat="50.38421" lon="2.717">
        <ele>90.02</ele>
        <time>2015-11-13T09:15:46Z</time>
      </trkpt>
      <trkpt lat="50.38424" lon="2.71718">
        <ele>88.58</ele>
        <time>2015-11-13T09:15:56Z</time>
      </trkpt>
      <trkpt lat="50.38422" lon="2.7174">
        <ele>87.62</ele>
        <time>2015-11-13T09:16:06Z</time>
      </trkpt>
      <trkpt lat="50.3841" lon="2.71756">
        <ele>86.66</ele>
        <time>2015-11-13T09:16:20Z</time>
      </trkpt>
      <trkpt lat="50.38407" lon="2.7176">
        <ele>85.69</ele>
        <time>2015-11-13T09:16:23Z</time>
      </trkpt>
      <trkpt lat="50.38387" lon="2.71786">
        <ele>84.25</ele>
        <time>2015-11-13T09:16:39Z</time>
      </trkpt>
      <trkpt lat="50.38366" lon="2.71805">
        <ele>83.77</ele>
        <time>2015-11-13T09:16:55Z</time>
      </trkpt>
      <trkpt lat="50.38347" lon="2.71823">
        <ele>82.81</ele>
        <time>2015-11-13T09:17:11Z</time>
      </trkpt>
      <trkpt lat="50.3833" lon="2.71836">
        <ele>82.81</ele>
        <time>2015-11-13T09:17:24Z</time>
      </trkpt>
      <trkpt lat="50.38311" lon="2.71849">
        <ele>82.33</ele>
        <time>2015-11-13T09:17:38Z</time>
      </trkpt>
      <trkpt lat="50.38292" lon="2.71863">
        <ele>82.33</ele>
        <time>2015-11-13T09:17:52Z</time>
      </trkpt>
      <trkpt lat="50.38287" lon="2.7187">
        <ele>82.33</ele>
        <time>2015-11-13T09:18:08Z</time>
      </trkpt>
      <trkpt lat="50.38283" lon="2.71871">
        <ele>82.33</ele>
        <time>2015-11-13T09:18:27Z</time>
      </trkpt>
      <trkpt lat="50.38283" lon="2.71871">
        <ele>82.81</ele>
        <time>2015-11-13T09:18:41Z</time>
      </trkpt>
      <trkpt lat="50.38281" lon="2.71865">
        <ele>82.81</ele>
        <time>2015-11-13T09:19:09Z</time>
      </trkpt>
      <trkpt lat="50.38278" lon="2.71868">
        <ele>82.81</ele>
        <time>2015-11-13T09:19:44Z</time>
      </trkpt>
      <trkpt lat="50.38279" lon="2.71865">
        <ele>83.77</ele>
        <time>2015-11-13T09:20:05Z</time>
      </trkpt>
      <trkpt lat="50.38278" lon="2.71861">
        <ele>84.73</ele>
        <time>2015-11-13T09:20:38Z</time>
      </trkpt>
      <trkpt lat="50.38272" lon="2.71872">
        <ele>84.73</ele>
        <time>2015-11-13T09:20:59Z</time>
      </trkpt>
      <trkpt lat="50.38271" lon="2.71873">
        <ele>84.73</ele>
        <time>2015-11-13T09:21:01Z</time>
      </trkpt>
      <trkpt lat="50.38276" lon="2.71871">
        <ele>84.73</ele>
        <time>2015-11-13T09:21:05Z</time>
      </trkpt>
      <trkpt lat="50.38286" lon="2.71865">
        <ele>84.73</ele>
        <time>2015-11-13T09:21:14Z</time>
      </trkpt>
      <trkpt lat="50.38289" lon="2.71862">
        <ele>83.29</ele>
        <time>2015-11-13T09:21:17Z</time>
      </trkpt>
      <trkpt lat="50.38308" lon="2.71848">
        <ele>82.81</ele>
        <time>2015-11-13T09:21:31Z</time>
      </trkpt>
      <trkpt lat="50.38325" lon="2.71837">
        <ele>82.81</ele>
        <time>2015-11-13T09:21:43Z</time>
      </trkpt>
      <trkpt lat="50.38329" lon="2.71833">
        <ele>82.81</ele>
        <time>2015-11-13T09:21:46Z</time>
      </trkpt>
      <trkpt lat="50.38335" lon="2.71828">
        <ele>82.81</ele>
        <time>2015-11-13T09:21:50Z</time>
      </trkpt>
      <trkpt lat="50.38338" lon="2.71825">
        <ele>84.25</ele>
        <time>2015-11-13T09:21:52Z</time>
      </trkpt>
      <trkpt lat="50.38354" lon="2.71809">
        <ele>84.25</ele>
        <time>2015-11-13T09:22:05Z</time>
      </trkpt>
      <trkpt lat="50.38378" lon="2.71788">
        <ele>85.21</ele>
        <time>2015-11-13T09:22:22Z</time>
      </trkpt>
      <trkpt lat="50.38392" lon="2.71777">
        <ele>85.69</ele>
        <time>2015-11-13T09:22:32Z</time>
      </trkpt>
      <trkpt lat="50.38398" lon="2.71771">
        <ele>86.66</ele>
        <time>2015-11-13T09:22:37Z</time>
      </trkpt>
      <trkpt lat="50.38405" lon="2.71764">
        <ele>87.14</ele>
        <time>2015-11-13T09:22:43Z</time>
      </trkpt>
      <trkpt lat="50.38419" lon="2.71735">
        <ele>89.06</ele>
        <time>2015-11-13T09:23:00Z</time>
      </trkpt>
      <trkpt lat="50.38419" lon="2.71701">
        <ele>91.46</ele>
        <time>2015-11-13T09:23:15Z</time>
      </trkpt>
      <trkpt lat="50.38408" lon="2.71663">
        <ele>90.5</ele>
        <time>2015-11-13T09:23:33Z</time>
      </trkpt>
      <trkpt lat="50.38404" lon="2.71616">
        <ele>89.54</ele>
        <time>2015-11-13T09:23:52Z</time>
      </trkpt>
      <trkpt lat="50.38401" lon="2.71577">
        <ele>89.54</ele>
        <time>2015-11-13T09:24:08Z</time>
      </trkpt>
      <trkpt lat="50.38394" lon="2.71532">
        <ele>89.54</ele>
        <time>2015-11-13T09:24:27Z</time>
      </trkpt>
      <trkpt lat="50.38384" lon="2.71487">
        <ele>89.54</ele>
        <time>2015-11-13T09:24:46Z</time>
      </trkpt>
      <trkpt lat="50.38371" lon="2.71447">
        <ele>89.54</ele>
        <time>2015-11-13T09:25:04Z</time>
      </trkpt>
      <trkpt lat="50.38354" lon="2.71412">
        <ele>89.06</ele>
        <time>2015-11-13T09:25:23Z</time>
      </trkpt>
      <trkpt lat="50.38343" lon="2.7139">
        <ele>88.58</ele>
        <time>2015-11-13T09:25:37Z</time>
      </trkpt>
      <trkpt lat="50.38332" lon="2.71371">
        <ele>87.14</ele>
        <time>2015-11-13T09:25:48Z</time>
      </trkpt>
      <trkpt lat="50.38317" lon="2.71348">
        <ele>85.69</ele>
        <time>2015-11-13T09:26:03Z</time>
      </trkpt>
      <trkpt lat="50.38304" lon="2.71327">
        <ele>84.73</ele>
        <time>2015-11-13T09:26:16Z</time>
      </trkpt>
      <trkpt lat="50.38288" lon="2.71306">
        <ele>84.73</ele>
        <time>2015-11-13T09:26:30Z</time>
      </trkpt>
      <trkpt lat="50.38275" lon="2.7129">
        <ele>84.73</ele>
        <time>2015-11-13T09:26:46Z</time>
      </trkpt>
      <trkpt lat="50.38272" lon="2.71287">
        <ele>84.73</ele>
        <time>2015-11-13T09:27:00Z</time>
      </trkpt>
      <trkpt lat="50.38274" lon="2.71288">
        <ele>84.73</ele>
        <time>2015-11-13T09:27:18Z</time>
      </trkpt>
      <trkpt lat="50.38277" lon="2.71292">
        <ele>84.73</ele>
        <time>2015-11-13T09:27:32Z</time>
      </trkpt>
      <trkpt lat="50.38283" lon="2.71299">
        <ele>84.25</ele>
        <time>2015-11-13T09:27:54Z</time>
      </trkpt>
      <trkpt lat="50.38285" lon="2.71301">
        <ele>86.18</ele>
        <time>2015-11-13T09:28:09Z</time>
      </trkpt>
      <trkpt lat="50.38285" lon="2.71299">
        <ele>84.73</ele>
        <time>2015-11-13T09:28:18Z</time>
      </trkpt>
      <trkpt lat="50.38284" lon="2.713">
        <ele>86.66</ele>
        <time>2015-11-13T09:28:30Z</time>
      </trkpt>
      <trkpt lat="50.38282" lon="2.71298">
        <ele>85.21</ele>
        <time>2015-11-13T09:29:05Z</time>
      </trkpt>
      <trkpt lat="50.38279" lon="2.71296">
        <ele>85.21</ele>
        <time>2015-11-13T09:29:21Z</time>
      </trkpt>
      <trkpt lat="50.38282" lon="2.71297">
        <ele>85.21</ele>
        <time>2015-11-13T09:29:41Z</time>
      </trkpt>
      <trkpt lat="50.38292" lon="2.71308">
        <ele>85.21</ele>
        <time>2015-11-13T09:29:52Z</time>
      </trkpt>
      <trkpt lat="50.38306" lon="2.71328">
        <ele>86.18</ele>
        <time>2015-11-13T09:30:07Z</time>
      </trkpt>
      <trkpt lat="50.3832" lon="2.71347">
        <ele>88.1</ele>
        <time>2015-11-13T09:30:20Z</time>
      </trkpt>
      <trkpt lat="50.38321" lon="2.71349">
        <ele>88.1</ele>
        <time>2015-11-13T09:30:21Z</time>
      </trkpt>
      <trkpt lat="50.38338" lon="2.71375">
        <ele>89.54</ele>
        <time>2015-11-13T09:30:37Z</time>
      </trkpt>
      <trkpt lat="50.38357" lon="2.71409">
        <ele>90.5</ele>
        <time>2015-11-13T09:30:55Z</time>
      </trkpt>
      <trkpt lat="50.38376" lon="2.7145">
        <ele>90.5</ele>
        <time>2015-11-13T09:31:13Z</time>
      </trkpt>
      <trkpt lat="50.38389" lon="2.71492">
        <ele>90.5</ele>
        <time>2015-11-13T09:31:31Z</time>
      </trkpt>
      <trkpt lat="50.38397" lon="2.71531">
        <ele>90.5</ele>
        <time>2015-11-13T09:31:48Z</time>
      </trkpt>
      <trkpt lat="50.38404" lon="2.71572">
        <ele>90.98</ele>
        <time>2015-11-13T09:32:05Z</time>
      </trkpt>
      <trkpt lat="50.38405" lon="2.7162">
        <ele>90.98</ele>
        <time>2015-11-13T09:32:24Z</time>
      </trkpt>
      <trkpt lat="50.38409" lon="2.71664">
        <ele>90.98</ele>
        <time>2015-11-13T09:32:42Z</time>
      </trkpt>
      <trkpt lat="50.38427" lon="2.71697">
        <ele>91.94</ele>
        <time>2015-11-13T09:33:01Z</time>
      </trkpt>
      <trkpt lat="50.38452" lon="2.71693">
        <ele>92.9</ele>
        <time>2015-11-13T09:33:18Z</time>
      </trkpt>
      <trkpt lat="50.38481" lon="2.71677">
        <ele>95.31</ele>
        <time>2015-11-13T09:33:38Z</time>
      </trkpt>
      <trkpt lat="50.38508" lon="2.71655">
        <ele>97.23</ele>
        <time>2015-11-13T09:33:58Z</time>
      </trkpt>
      <trkpt lat="50.3853" lon="2.71628">
        <ele>100.11</ele>
        <time>2015-11-13T09:34:17Z</time>
      </trkpt>
      <trkpt lat="50.38559" lon="2.71596">
        <ele>102.52</ele>
        <time>2015-11-13T09:34:40Z</time>
      </trkpt>
      <trkpt lat="50.38586" lon="2.71577">
        <ele>104.44</ele>
        <time>2015-11-13T09:34:59Z</time>
      </trkpt>
      <trkpt lat="50.38611" lon="2.71571">
        <ele>104.44</ele>
        <time>2015-11-13T09:35:16Z</time>
      </trkpt>
      <trkpt lat="50.38628" lon="2.71568">
        <ele>104.92</ele>
        <time>2015-11-13T09:35:27Z</time>
      </trkpt>
      <trkpt lat="50.38631" lon="2.71556">
        <ele>105.4</ele>
        <time>2015-11-13T09:35:37Z</time>
      </trkpt>
      <trkpt lat="50.38641" lon="2.71561">
        <ele>105.4</ele>
        <time>2015-11-13T09:35:46Z</time>
      </trkpt>
      <trkpt lat="50.38665" lon="2.71545">
        <ele>105.88</ele>
        <time>2015-11-13T09:36:04Z</time>
      </trkpt>
      <trkpt lat="50.38689" lon="2.71532">
        <ele>106.36</ele>
        <time>2015-11-13T09:36:26Z</time>
      </trkpt>
      <trkpt lat="50.38688" lon="2.71534">
        <ele>106.36</ele>
        <time>2015-11-13T09:36:44Z</time>
      </trkpt>
      <trkpt lat="50.38686" lon="2.71536">
        <ele>106.36</ele>
        <time>2015-11-13T09:37:00Z</time>
      </trkpt>
      <trkpt lat="50.38686" lon="2.71537">
        <ele>104.92</ele>
        <time>2015-11-13T09:37:05Z</time>
      </trkpt>
      <trkpt lat="50.38688" lon="2.71534">
        <ele>104.92</ele>
        <time>2015-11-13T09:37:22Z</time>
      </trkpt>
      <trkpt lat="50.38687" lon="2.71533">
        <ele>105.88</ele>
        <time>2015-11-13T09:37:39Z</time>
      </trkpt>
      <trkpt lat="50.38688" lon="2.71533">
        <ele>105.88</ele>
        <time>2015-11-13T09:37:49Z</time>
      </trkpt>
      <trkpt lat="50.38687" lon="2.71534">
        <ele>105.88</ele>
        <time>2015-11-13T09:38:05Z</time>
      </trkpt>
      <trkpt lat="50.38689" lon="2.71533">
        <ele>105.88</ele>
        <time>2015-11-13T09:38:40Z</time>
      </trkpt>
      <trkpt lat="50.38691" lon="2.71535">
        <ele>105.88</ele>
        <time>2015-11-13T09:38:53Z</time>
      </trkpt>
      <trkpt lat="50.38686" lon="2.71536">
        <ele>105.88</ele>
        <time>2015-11-13T09:39:01Z</time>
      </trkpt>
      <trkpt lat="50.38682" lon="2.71541">
        <ele>105.88</ele>
        <time>2015-11-13T09:39:08Z</time>
      </trkpt>
      <trkpt lat="50.3868" lon="2.71542">
        <ele>105.88</ele>
        <time>2015-11-13T09:39:20Z</time>
      </trkpt>
      <trkpt lat="50.3868" lon="2.71541">
        <ele>105.88</ele>
        <time>2015-11-13T09:39:21Z</time>
      </trkpt>
      <trkpt lat="50.3869" lon="2.71522">
        <ele>105.88</ele>
        <time>2015-11-13T09:39:39Z</time>
      </trkpt>
      <trkpt lat="50.38689" lon="2.71522">
        <ele>105.88</ele>
        <time>2015-11-13T09:40:02Z</time>
      </trkpt>
      <trkpt lat="50.3869" lon="2.71523">
        <ele>105.88</ele>
        <time>2015-11-13T09:40:20Z</time>
      </trkpt>
      <trkpt lat="50.38689" lon="2.71532">
        <ele>106.36</ele>
        <time>2015-11-13T09:40:46Z</time>
      </trkpt>
      <trkpt lat="50.38692" lon="2.71537">
        <ele>104.92</ele>
        <time>2015-11-13T09:40:59Z</time>
      </trkpt>
      <trkpt lat="50.38691" lon="2.71538">
        <ele>104.44</ele>
        <time>2015-11-13T09:41:14Z</time>
      </trkpt>
      <trkpt lat="50.38691" lon="2.71538">
        <ele>104.44</ele>
        <time>2015-11-13T09:41:38Z</time>
      </trkpt>
      <trkpt lat="50.3869" lon="2.71538">
        <ele>103.96</ele>
        <time>2015-11-13T09:42:04Z</time>
      </trkpt>
      <trkpt lat="50.3869" lon="2.71531">
        <ele>105.4</ele>
        <time>2015-11-13T09:42:11Z</time>
      </trkpt>
      <trkpt lat="50.38701" lon="2.71514">
        <ele>105.4</ele>
        <time>2015-11-13T09:42:28Z</time>
      </trkpt>
      <trkpt lat="50.38702" lon="2.71513">
        <ele>105.4</ele>
        <time>2015-11-13T09:42:30Z</time>
      </trkpt>
      <trkpt lat="50.38714" lon="2.71501">
        <ele>106.36</ele>
        <time>2015-11-13T09:42:49Z</time>
      </trkpt>
      <trkpt lat="50.38716" lon="2.71496">
        <ele>106.36</ele>
        <time>2015-11-13T09:43:02Z</time>
      </trkpt>
      <trkpt lat="50.38716" lon="2.71497">
        <ele>106.36</ele>
        <time>2015-11-13T09:43:42Z</time>
      </trkpt>
      <trkpt lat="50.38714" lon="2.715">
        <ele>106.36</ele>
        <time>2015-11-13T09:43:45Z</time>
      </trkpt>
      <trkpt lat="50.38705" lon="2.71509">
        <ele>106.36</ele>
        <time>2015-11-13T09:44:03Z</time>
      </trkpt>
      <trkpt lat="50.38707" lon="2.71507">
        <ele>106.36</ele>
        <time>2015-11-13T09:44:06Z</time>
      </trkpt>
      <trkpt lat="50.38718" lon="2.71496">
        <ele>106.36</ele>
        <time>2015-11-13T09:44:21Z</time>
      </trkpt>
      <trkpt lat="50.38739" lon="2.71475">
        <ele>106.36</ele>
        <time>2015-11-13T09:44:42Z</time>
      </trkpt>
      <trkpt lat="50.38764" lon="2.71451">
        <ele>106.84</ele>
        <time>2015-11-13T09:45:03Z</time>
      </trkpt>
      <trkpt lat="50.38789" lon="2.71426">
        <ele>106.84</ele>
        <time>2015-11-13T09:45:27Z</time>
      </trkpt>
      <trkpt lat="50.3879" lon="2.71424">
        <ele>106.84</ele>
        <time>2015-11-13T09:45:34Z</time>
      </trkpt>
      <trkpt lat="50.38795" lon="2.71419">
        <ele>106.84</ele>
        <time>2015-11-13T09:45:38Z</time>
      </trkpt>
      <trkpt lat="50.38821" lon="2.71393">
        <ele>106.84</ele>
        <time>2015-11-13T09:45:58Z</time>
      </trkpt>
      <trkpt lat="50.38845" lon="2.71366">
        <ele>106.84</ele>
        <time>2015-11-13T09:46:18Z</time>
      </trkpt>
      <trkpt lat="50.38858" lon="2.71348">
        <ele>105.88</ele>
        <time>2015-11-13T09:46:30Z</time>
      </trkpt>
      <trkpt lat="50.38875" lon="2.7132">
        <ele>104.44</ele>
        <time>2015-11-13T09:46:46Z</time>
      </trkpt>
      <trkpt lat="50.38886" lon="2.71299">
        <ele>104.44</ele>
        <time>2015-11-13T09:46:58Z</time>
      </trkpt>
      <trkpt lat="50.3889" lon="2.7129">
        <ele>104.44</ele>
        <time>2015-11-13T09:47:03Z</time>
      </trkpt>
      <trkpt lat="50.38912" lon="2.71254">
        <ele>103.96</ele>
        <time>2015-11-13T09:47:24Z</time>
      </trkpt>
      <trkpt lat="50.3893" lon="2.71225">
        <ele>103</ele>
        <time>2015-11-13T09:47:41Z</time>
      </trkpt>
      <trkpt lat="50.38949" lon="2.71192">
        <ele>103</ele>
        <time>2015-11-13T09:47:58Z</time>
      </trkpt>
      <trkpt lat="50.38943" lon="2.71178">
        <ele>102.52</ele>
        <time>2015-11-13T09:48:06Z</time>
      </trkpt>
      <trkpt lat="50.38914" lon="2.7116">
        <ele>103.96</ele>
        <time>2015-11-13T09:48:26Z</time>
      </trkpt>
      <trkpt lat="50.38886" lon="2.71142">
        <ele>105.4</ele>
        <time>2015-11-13T09:48:45Z</time>
      </trkpt>
      <trkpt lat="50.3888" lon="2.71137">
        <ele>105.88</ele>
        <time>2015-11-13T09:48:50Z</time>
      </trkpt>
      <trkpt lat="50.38863" lon="2.71125">
        <ele>106.84</ele>
        <time>2015-11-13T09:49:03Z</time>
      </trkpt>
      <trkpt lat="50.38843" lon="2.71114">
        <ele>108.29</ele>
        <time>2015-11-13T09:49:17Z</time>
      </trkpt>
      <trkpt lat="50.38817" lon="2.711">
        <ele>109.73</ele>
        <time>2015-11-13T09:49:35Z</time>
      </trkpt>
      <trkpt lat="50.38788" lon="2.71085">
        <ele>111.65</ele>
        <time>2015-11-13T09:49:55Z</time>
      </trkpt>
      <trkpt lat="50.38761" lon="2.71067">
        <ele>113.57</ele>
        <time>2015-11-13T09:50:14Z</time>
      </trkpt>
      <trkpt lat="50.38741" lon="2.71035">
        <ele>115.98</ele>
        <time>2015-11-13T09:50:34Z</time>
      </trkpt>
      <trkpt lat="50.38722" lon="2.70999">
        <ele>116.94</ele>
        <time>2015-11-13T09:50:54Z</time>
      </trkpt>
      <trkpt lat="50.38708" lon="2.70973">
        <ele>118.86</ele>
        <time>2015-11-13T09:51:09Z</time>
      </trkpt>
      <trkpt lat="50.38693" lon="2.70943">
        <ele>120.78</ele>
        <time>2015-11-13T09:51:25Z</time>
      </trkpt>
      <trkpt lat="50.38678" lon="2.70908">
        <ele>122.22</ele>
        <time>2015-11-13T09:51:43Z</time>
      </trkpt>
      <trkpt lat="50.38666" lon="2.70877">
        <ele>124.15</ele>
        <time>2015-11-13T09:51:59Z</time>
      </trkpt>
      <trkpt lat="50.38658" lon="2.70857">
        <ele>126.07</ele>
        <time>2015-11-13T09:52:10Z</time>
      </trkpt>
      <trkpt lat="50.38656" lon="2.70853">
        <ele>124.63</ele>
        <time>2015-11-13T09:52:12Z</time>
      </trkpt>
      <trkpt lat="50.3865" lon="2.70839">
        <ele>125.59</ele>
        <time>2015-11-13T09:52:19Z</time>
      </trkpt>
      <trkpt lat="50.38632" lon="2.70804">
        <ele>126.07</ele>
        <time>2015-11-13T09:52:38Z</time>
      </trkpt>
      <trkpt lat="50.38616" lon="2.70777">
        <ele>128.95</ele>
        <time>2015-11-13T09:52:54Z</time>
      </trkpt>
      <trkpt lat="50.38612" lon="2.70773">
        <ele>126.55</ele>
        <time>2015-11-13T09:52:57Z</time>
      </trkpt>
      <trkpt lat="50.3861" lon="2.7077">
        <ele>126.55</ele>
        <time>2015-11-13T09:52:59Z</time>
      </trkpt>
      <trkpt lat="50.38586" lon="2.70746">
        <ele>128.95</ele>
        <time>2015-11-13T09:53:17Z</time>
      </trkpt>
      <trkpt lat="50.38574" lon="2.70718">
        <ele>128.95</ele>
        <time>2015-11-13T09:53:33Z</time>
      </trkpt>
      <trkpt lat="50.3858" lon="2.70671">
        <ele>129.92</ele>
        <time>2015-11-13T09:53:53Z</time>
      </trkpt>
      <trkpt lat="50.38586" lon="2.70626">
        <ele>129.92</ele>
        <time>2015-11-13T09:54:12Z</time>
      </trkpt>
      <trkpt lat="50.38592" lon="2.7058">
        <ele>131.36</ele>
        <time>2015-11-13T09:54:32Z</time>
      </trkpt>
      <trkpt lat="50.38596" lon="2.70541">
        <ele>130.88</ele>
        <time>2015-11-13T09:54:49Z</time>
      </trkpt>
      <trkpt lat="50.386" lon="2.70511">
        <ele>132.32</ele>
        <time>2015-11-13T09:55:02Z</time>
      </trkpt>
      <trkpt lat="50.38604" lon="2.70468">
        <ele>133.28</ele>
        <time>2015-11-13T09:55:20Z</time>
      </trkpt>
      <trkpt lat="50.38604" lon="2.70447">
        <ele>133.28</ele>
        <time>2015-11-13T09:55:37Z</time>
      </trkpt>
      <trkpt lat="50.38603" lon="2.70445">
        <ele>133.76</ele>
        <time>2015-11-13T09:56:09Z</time>
      </trkpt>
      <trkpt lat="50.38604" lon="2.70446">
        <ele>132.8</ele>
        <time>2015-11-13T09:56:33Z</time>
      </trkpt>
      <trkpt lat="50.38604" lon="2.70445">
        <ele>134.24</ele>
        <time>2015-11-13T09:57:10Z</time>
      </trkpt>
      <trkpt lat="50.38604" lon="2.70445">
        <ele>134.24</ele>
        <time>2015-11-13T09:57:11Z</time>
      </trkpt>
      <trkpt lat="50.38606" lon="2.70447">
        <ele>134.24</ele>
        <time>2015-11-13T09:57:26Z</time>
      </trkpt>
      <trkpt lat="50.38607" lon="2.70446">
        <ele>134.24</ele>
        <time>2015-11-13T09:57:32Z</time>
      </trkpt>
      <trkpt lat="50.38608" lon="2.70439">
        <ele>134.24</ele>
        <time>2015-11-13T09:57:35Z</time>
      </trkpt>
      <trkpt lat="50.3861" lon="2.70431">
        <ele>134.24</ele>
        <time>2015-11-13T09:57:39Z</time>
      </trkpt>
      <trkpt lat="50.3861" lon="2.70426">
        <ele>132.8</ele>
        <time>2015-11-13T09:57:41Z</time>
      </trkpt>
      <trkpt lat="50.38614" lon="2.70377">
        <ele>132.32</ele>
        <time>2015-11-13T09:58:02Z</time>
      </trkpt>
      <trkpt lat="50.38615" lon="2.70353">
        <ele>133.76</ele>
        <time>2015-11-13T09:58:12Z</time>
      </trkpt>
      <trkpt lat="50.38616" lon="2.70345">
        <ele>133.76</ele>
        <time>2015-11-13T09:58:15Z</time>
      </trkpt>
      <trkpt lat="50.38615" lon="2.70337">
        <ele>134.24</ele>
        <time>2015-11-13T09:58:18Z</time>
      </trkpt>
      <trkpt lat="50.38617" lon="2.70316">
        <ele>135.2</ele>
        <time>2015-11-13T09:58:27Z</time>
      </trkpt>
      <trkpt lat="50.38617" lon="2.70308">
        <ele>133.76</ele>
        <time>2015-11-13T09:58:30Z</time>
      </trkpt>
      <trkpt lat="50.38619" lon="2.70282">
        <ele>134.72</ele>
        <time>2015-11-13T09:58:41Z</time>
      </trkpt>
      <trkpt lat="50.3862" lon="2.70258">
        <ele>135.68</ele>
        <time>2015-11-13T09:58:51Z</time>
      </trkpt>
      <trkpt lat="50.38624" lon="2.70215">
        <ele>137.13</ele>
        <time>2015-11-13T09:59:09Z</time>
      </trkpt>
      <trkpt lat="50.38624" lon="2.70205">
        <ele>135.2</ele>
        <time>2015-11-13T09:59:13Z</time>
      </trkpt>
      <trkpt lat="50.38625" lon="2.7018">
        <ele>137.13</ele>
        <time>2015-11-13T09:59:23Z</time>
      </trkpt>
      <trkpt lat="50.38626" lon="2.70168">
        <ele>135.68</ele>
        <time>2015-11-13T09:59:28Z</time>
      </trkpt>
      <trkpt lat="50.38627" lon="2.70147">
        <ele>135.68</ele>
        <time>2015-11-13T09:59:36Z</time>
      </trkpt>
      <trkpt lat="50.38629" lon="2.70105">
        <ele>135.2</ele>
        <time>2015-11-13T09:59:53Z</time>
      </trkpt>
      <trkpt lat="50.38631" lon="2.70077">
        <ele>134.72</ele>
        <time>2015-11-13T10:00:04Z</time>
      </trkpt>
      <trkpt lat="50.38633" lon="2.70059">
        <ele>134.72</ele>
        <time>2015-11-13T10:00:12Z</time>
      </trkpt>
      <trkpt lat="50.38633" lon="2.70045">
        <ele>136.16</ele>
        <time>2015-11-13T10:00:17Z</time>
      </trkpt>
      <trkpt lat="50.38635" lon="2.70006">
        <ele>135.2</ele>
        <time>2015-11-13T10:00:33Z</time>
      </trkpt>
      <trkpt lat="50.38634" lon="2.69968">
        <ele>134.72</ele>
        <time>2015-11-13T10:00:48Z</time>
      </trkpt>
      <trkpt lat="50.38632" lon="2.69928">
        <ele>135.68</ele>
        <time>2015-11-13T10:01:04Z</time>
      </trkpt>
      <trkpt lat="50.3863" lon="2.69892">
        <ele>135.68</ele>
        <time>2015-11-13T10:01:19Z</time>
      </trkpt>
      <trkpt lat="50.3863" lon="2.69853">
        <ele>136.16</ele>
        <time>2015-11-13T10:01:38Z</time>
      </trkpt>
      <trkpt lat="50.38631" lon="2.69855">
        <ele>137.13</ele>
        <time>2015-11-13T10:01:49Z</time>
      </trkpt>
      <trkpt lat="50.38632" lon="2.69857">
        <ele>136.16</ele>
        <time>2015-11-13T10:01:54Z</time>
      </trkpt>
      <trkpt lat="50.3863" lon="2.69855">
        <ele>137.13</ele>
        <time>2015-11-13T10:02:07Z</time>
      </trkpt>
      <trkpt lat="50.3863" lon="2.69855">
        <ele>136.16</ele>
        <time>2015-11-13T10:02:32Z</time>
      </trkpt>
      <trkpt lat="50.38631" lon="2.69856">
        <ele>136.16</ele>
        <time>2015-11-13T10:02:40Z</time>
      </trkpt>
      <trkpt lat="50.38634" lon="2.69859">
        <ele>138.09</ele>
        <time>2015-11-13T10:02:59Z</time>
      </trkpt>
      <trkpt lat="50.38639" lon="2.69859">
        <ele>136.64</ele>
        <time>2015-11-13T10:03:03Z</time>
      </trkpt>
      <trkpt lat="50.38668" lon="2.69864">
        <ele>136.16</ele>
        <time>2015-11-13T10:03:23Z</time>
      </trkpt>
      <trkpt lat="50.38692" lon="2.69861">
        <ele>133.76</ele>
        <time>2015-11-13T10:03:39Z</time>
      </trkpt>
      <trkpt lat="50.38714" lon="2.69856">
        <ele>132.8</ele>
        <time>2015-11-13T10:03:53Z</time>
      </trkpt>
      <trkpt lat="50.38735" lon="2.69858">
        <ele>132.8</ele>
        <time>2015-11-13T10:04:07Z</time>
      </trkpt>
      <trkpt lat="50.38757" lon="2.69877">
        <ele>131.84</ele>
        <time>2015-11-13T10:04:24Z</time>
      </trkpt>
      <trkpt lat="50.38776" lon="2.69889">
        <ele>130.88</ele>
        <time>2015-11-13T10:04:38Z</time>
      </trkpt>
      <trkpt lat="50.38778" lon="2.69889">
        <ele>130.88</ele>
        <time>2015-11-13T10:04:56Z</time>
      </trkpt>
      <trkpt lat="50.38778" lon="2.6989">
        <ele>130.88</ele>
        <time>2015-11-13T10:05:07Z</time>
      </trkpt>
      <trkpt lat="50.38785" lon="2.69899">
        <ele>130.88</ele>
        <time>2015-11-13T10:05:14Z</time>
      </trkpt>
      <trkpt lat="50.38809" lon="2.69918">
        <ele>130.4</ele>
        <time>2015-11-13T10:05:32Z</time>
      </trkpt>
      <trkpt lat="50.38835" lon="2.69935">
        <ele>128.95</ele>
        <time>2015-11-13T10:05:51Z</time>
      </trkpt>
      <trkpt lat="50.38862" lon="2.69956">
        <ele>128.95</ele>
        <time>2015-11-13T10:06:12Z</time>
      </trkpt>
      <trkpt lat="50.38883" lon="2.69979">
        <ele>127.51</ele>
        <time>2015-11-13T10:06:29Z</time>
      </trkpt>
      <trkpt lat="50.38902" lon="2.69999">
        <ele>126.55</ele>
        <time>2015-11-13T10:06:45Z</time>
      </trkpt>
      <trkpt lat="50.38922" lon="2.70023">
        <ele>125.59</ele>
        <time>2015-11-13T10:07:01Z</time>
      </trkpt>
      <trkpt lat="50.38944" lon="2.7005">
        <ele>124.63</ele>
        <time>2015-11-13T10:07:19Z</time>
      </trkpt>
      <trkpt lat="50.38964" lon="2.70073">
        <ele>123.19</ele>
        <time>2015-11-13T10:07:35Z</time>
      </trkpt>
      <trkpt lat="50.38987" lon="2.70094">
        <ele>122.22</ele>
        <time>2015-11-13T10:07:53Z</time>
      </trkpt>
      <trkpt lat="50.39005" lon="2.70108">
        <ele>120.3</ele>
        <time>2015-11-13T10:08:06Z</time>
      </trkpt>
      <trkpt lat="50.39027" lon="2.70118">
        <ele>118.86</ele>
        <time>2015-11-13T10:08:21Z</time>
      </trkpt>
      <trkpt lat="50.39051" lon="2.7013">
        <ele>117.9</ele>
        <time>2015-11-13T10:08:38Z</time>
      </trkpt>
      <trkpt lat="50.39055" lon="2.70132">
        <ele>115.98</ele>
        <time>2015-11-13T10:08:40Z</time>
      </trkpt>
      <trkpt lat="50.39058" lon="2.70134">
        <ele>117.9</ele>
        <time>2015-11-13T10:08:42Z</time>
      </trkpt>
      <trkpt lat="50.3906" lon="2.70135">
        <ele>116.46</ele>
        <time>2015-11-13T10:08:44Z</time>
      </trkpt>
      <trkpt lat="50.39067" lon="2.70139">
        <ele>115.5</ele>
        <time>2015-11-13T10:08:49Z</time>
      </trkpt>
      <trkpt lat="50.39068" lon="2.7014">
        <ele>115.5</ele>
        <time>2015-11-13T10:08:50Z</time>
      </trkpt>
      <trkpt lat="50.39069" lon="2.70141">
        <ele>115.5</ele>
        <time>2015-11-13T10:08:51Z</time>
      </trkpt>
      <trkpt lat="50.39071" lon="2.70141">
        <ele>115.5</ele>
        <time>2015-11-13T10:08:52Z</time>
      </trkpt>
      <trkpt lat="50.39073" lon="2.70143">
        <ele>115.5</ele>
        <time>2015-11-13T10:08:54Z</time>
      </trkpt>
      <trkpt lat="50.39091" lon="2.7015">
        <ele>113.57</ele>
        <time>2015-11-13T10:09:07Z</time>
      </trkpt>
      <trkpt lat="50.39099" lon="2.70156">
        <ele>113.09</ele>
        <time>2015-11-13T10:09:12Z</time>
      </trkpt>
      <trkpt lat="50.391" lon="2.70157">
        <ele>113.09</ele>
        <time>2015-11-13T10:09:13Z</time>
      </trkpt>
      <trkpt lat="50.39102" lon="2.70157">
        <ele>113.09</ele>
        <time>2015-11-13T10:09:14Z</time>
      </trkpt>
      <trkpt lat="50.39121" lon="2.70168">
        <ele>111.65</ele>
        <time>2015-11-13T10:09:27Z</time>
      </trkpt>
      <trkpt lat="50.39127" lon="2.70171">
        <ele>112.61</ele>
        <time>2015-11-13T10:09:31Z</time>
      </trkpt>
      <trkpt lat="50.3913" lon="2.70172">
        <ele>111.17</ele>
        <time>2015-11-13T10:09:33Z</time>
      </trkpt>
      <trkpt lat="50.3915" lon="2.70187">
        <ele>110.21</ele>
        <time>2015-11-13T10:09:48Z</time>
      </trkpt>
      <trkpt lat="50.39174" lon="2.70208">
        <ele>109.25</ele>
        <time>2015-11-13T10:10:05Z</time>
      </trkpt>
      <trkpt lat="50.39201" lon="2.70232">
        <ele>107.81</ele>
        <time>2015-11-13T10:10:25Z</time>
      </trkpt>
      <trkpt lat="50.39225" lon="2.70256">
        <ele>107.32</ele>
        <time>2015-11-13T10:10:43Z</time>
      </trkpt>
      <trkpt lat="50.39249" lon="2.70278">
        <ele>105.88</ele>
        <time>2015-11-13T10:11:02Z</time>
      </trkpt>
      <trkpt lat="50.39272" lon="2.70301">
        <ele>105.4</ele>
        <time>2015-11-13T10:11:20Z</time>
      </trkpt>
      <trkpt lat="50.39297" lon="2.70331">
        <ele>104.44</ele>
        <time>2015-11-13T10:11:42Z</time>
      </trkpt>
      <trkpt lat="50.39293" lon="2.70379">
        <ele>105.4</ele>
        <time>2015-11-13T10:12:02Z</time>
      </trkpt>
      <trkpt lat="50.39284" lon="2.70415">
        <ele>105.88</ele>
        <time>2015-11-13T10:12:19Z</time>
      </trkpt>
      <trkpt lat="50.39281" lon="2.70427">
        <ele>105.88</ele>
        <time>2015-11-13T10:12:24Z</time>
      </trkpt>
      <trkpt lat="50.39281" lon="2.70429">
        <ele>105.88</ele>
        <time>2015-11-13T10:12:25Z</time>
      </trkpt>
      <trkpt lat="50.39281" lon="2.70432">
        <ele>105.88</ele>
        <time>2015-11-13T10:12:26Z</time>
      </trkpt>
      <trkpt lat="50.3928" lon="2.70434">
        <ele>105.88</ele>
        <time>2015-11-13T10:12:27Z</time>
      </trkpt>
      <trkpt lat="50.39279" lon="2.70436">
        <ele>105.88</ele>
        <time>2015-11-13T10:12:28Z</time>
      </trkpt>
      <trkpt lat="50.39278" lon="2.70438">
        <ele>105.88</ele>
        <time>2015-11-13T10:12:29Z</time>
      </trkpt>
      <trkpt lat="50.39277" lon="2.70439">
        <ele>105.88</ele>
        <time>2015-11-13T10:12:30Z</time>
      </trkpt>
      <trkpt lat="50.39277" lon="2.70441">
        <ele>105.88</ele>
        <time>2015-11-13T10:12:31Z</time>
      </trkpt>
      <trkpt lat="50.39276" lon="2.70443">
        <ele>105.88</ele>
        <time>2015-11-13T10:12:32Z</time>
      </trkpt>
      <trkpt lat="50.39275" lon="2.70446">
        <ele>104.44</ele>
        <time>2015-11-13T10:12:33Z</time>
      </trkpt>
      <trkpt lat="50.39275" lon="2.70448">
        <ele>104.44</ele>
        <time>2015-11-13T10:12:34Z</time>
      </trkpt>
      <trkpt lat="50.39272" lon="2.70469">
        <ele>103.96</ele>
        <time>2015-11-13T10:12:43Z</time>
      </trkpt>
      <trkpt lat="50.39272" lon="2.70472">
        <ele>103.96</ele>
        <time>2015-11-13T10:12:44Z</time>
      </trkpt>
      <trkpt lat="50.39271" lon="2.70474">
        <ele>103.96</ele>
        <time>2015-11-13T10:12:45Z</time>
      </trkpt>
      <trkpt lat="50.3927" lon="2.70475">
        <ele>104.44</ele>
        <time>2015-11-13T10:12:46Z</time>
      </trkpt>
      <trkpt lat="50.39269" lon="2.70478">
        <ele>104.44</ele>
        <time>2015-11-13T10:12:47Z</time>
      </trkpt>
      <trkpt lat="50.39265" lon="2.70496">
        <ele>103.48</ele>
        <time>2015-11-13T10:12:55Z</time>
      </trkpt>
      <trkpt lat="50.39262" lon="2.70509">
        <ele>103</ele>
        <time>2015-11-13T10:13:01Z</time>
      </trkpt>
      <trkpt lat="50.39257" lon="2.70518">
        <ele>103</ele>
        <time>2015-11-13T10:13:06Z</time>
      </trkpt>
      <trkpt lat="50.39256" lon="2.7052">
        <ele>103</ele>
        <time>2015-11-13T10:13:07Z</time>
      </trkpt>
      <trkpt lat="50.39248" lon="2.70544">
        <ele>102.52</ele>
        <time>2015-11-13T10:13:18Z</time>
      </trkpt>
      <trkpt lat="50.39248" lon="2.70545">
        <ele>102.52</ele>
        <time>2015-11-13T10:13:19Z</time>
      </trkpt>
      <trkpt lat="50.39235" lon="2.70571">
        <ele>102.04</ele>
        <time>2015-11-13T10:13:32Z</time>
      </trkpt>
      <trkpt lat="50.39224" lon="2.70592">
        <ele>101.56</ele>
        <time>2015-11-13T10:13:44Z</time>
      </trkpt>
      <trkpt lat="50.39223" lon="2.70593">
        <ele>101.56</ele>
        <time>2015-11-13T10:13:45Z</time>
      </trkpt>
      <trkpt lat="50.39222" lon="2.70594">
        <ele>101.56</ele>
        <time>2015-11-13T10:13:46Z</time>
      </trkpt>
      <trkpt lat="50.39221" lon="2.70596">
        <ele>101.56</ele>
        <time>2015-11-13T10:13:47Z</time>
      </trkpt>
      <trkpt lat="50.39221" lon="2.70598">
        <ele>101.56</ele>
        <time>2015-11-13T10:13:48Z</time>
      </trkpt>
      <trkpt lat="50.39221" lon="2.706">
        <ele>101.56</ele>
        <time>2015-11-13T10:13:49Z</time>
      </trkpt>
      <trkpt lat="50.39211" lon="2.70626">
        <ele>101.08</ele>
        <time>2015-11-13T10:14:01Z</time>
      </trkpt>
      <trkpt lat="50.39206" lon="2.70632">
        <ele>101.08</ele>
        <time>2015-11-13T10:14:05Z</time>
      </trkpt>
      <trkpt lat="50.39205" lon="2.70633">
        <ele>101.08</ele>
        <time>2015-11-13T10:14:06Z</time>
      </trkpt>
      <trkpt lat="50.39204" lon="2.70635">
        <ele>100.6</ele>
        <time>2015-11-13T10:14:07Z</time>
      </trkpt>
      <trkpt lat="50.39203" lon="2.70636">
        <ele>100.6</ele>
        <time>2015-11-13T10:14:08Z</time>
      </trkpt>
      <trkpt lat="50.39202" lon="2.70638">
        <ele>100.6</ele>
        <time>2015-11-13T10:14:09Z</time>
      </trkpt>
      <trkpt lat="50.39202" lon="2.70641">
        <ele>100.6</ele>
        <time>2015-11-13T10:14:10Z</time>
      </trkpt>
      <trkpt lat="50.39201" lon="2.70644">
        <ele>100.6</ele>
        <time>2015-11-13T10:14:11Z</time>
      </trkpt>
      <trkpt lat="50.39189" lon="2.70667">
        <ele>100.11</ele>
        <time>2015-11-13T10:14:24Z</time>
      </trkpt>
      <trkpt lat="50.39174" lon="2.70695">
        <ele>99.63</ele>
        <time>2015-11-13T10:14:40Z</time>
      </trkpt>
      <trkpt lat="50.39169" lon="2.70701">
        <ele>99.63</ele>
        <time>2015-11-13T10:14:44Z</time>
      </trkpt>
      <trkpt lat="50.39168" lon="2.70703">
        <ele>99.63</ele>
        <time>2015-11-13T10:14:45Z</time>
      </trkpt>
      <trkpt lat="50.39167" lon="2.70704">
        <ele>99.63</ele>
        <time>2015-11-13T10:14:46Z</time>
      </trkpt>
      <trkpt lat="50.39166" lon="2.70707">
        <ele>99.63</ele>
        <time>2015-11-13T10:14:47Z</time>
      </trkpt>
      <trkpt lat="50.39165" lon="2.70709">
        <ele>99.63</ele>
        <time>2015-11-13T10:14:48Z</time>
      </trkpt>
      <trkpt lat="50.39164" lon="2.70711">
        <ele>99.63</ele>
        <time>2015-11-13T10:14:49Z</time>
      </trkpt>
      <trkpt lat="50.39163" lon="2.70713">
        <ele>99.63</ele>
        <time>2015-11-13T10:14:50Z</time>
      </trkpt>
      <trkpt lat="50.39154" lon="2.70737">
        <ele>99.15</ele>
        <time>2015-11-13T10:15:01Z</time>
      </trkpt>
      <trkpt lat="50.39154" lon="2.70739">
        <ele>99.15</ele>
        <time>2015-11-13T10:15:02Z</time>
      </trkpt>
      <trkpt lat="50.39155" lon="2.70741">
        <ele>99.15</ele>
        <time>2015-11-13T10:15:03Z</time>
      </trkpt>
      <trkpt lat="50.39155" lon="2.70743">
        <ele>99.15</ele>
        <time>2015-11-13T10:15:04Z</time>
      </trkpt>
      <trkpt lat="50.39157" lon="2.70744">
        <ele>99.15</ele>
        <time>2015-11-13T10:15:05Z</time>
      </trkpt>
      <trkpt lat="50.39171" lon="2.70764">
        <ele>97.71</ele>
        <time>2015-11-13T10:15:19Z</time>
      </trkpt>
      <trkpt lat="50.39174" lon="2.7077">
        <ele>97.23</ele>
        <time>2015-11-13T10:15:23Z</time>
      </trkpt>
      <trkpt lat="50.39175" lon="2.70771">
        <ele>97.23</ele>
        <time>2015-11-13T10:15:24Z</time>
      </trkpt>
      <trkpt lat="50.39177" lon="2.70773">
        <ele>97.23</ele>
        <time>2015-11-13T10:15:25Z</time>
      </trkpt>
      <trkpt lat="50.39178" lon="2.70774">
        <ele>97.23</ele>
        <time>2015-11-13T10:15:26Z</time>
      </trkpt>
      <trkpt lat="50.39179" lon="2.70775">
        <ele>97.23</ele>
        <time>2015-11-13T10:15:27Z</time>
      </trkpt>
      <trkpt lat="50.39195" lon="2.70794">
        <ele>96.75</ele>
        <time>2015-11-13T10:15:41Z</time>
      </trkpt>
      <trkpt lat="50.39209" lon="2.70817">
        <ele>95.79</ele>
        <time>2015-11-13T10:15:55Z</time>
      </trkpt>
      <trkpt lat="50.39227" lon="2.7084">
        <ele>95.31</ele>
        <time>2015-11-13T10:16:11Z</time>
      </trkpt>
      <trkpt lat="50.39243" lon="2.70858">
        <ele>93.87</ele>
        <time>2015-11-13T10:16:24Z</time>
      </trkpt>
      <trkpt lat="50.39256" lon="2.70876">
        <ele>93.87</ele>
        <time>2015-11-13T10:16:37Z</time>
      </trkpt>
      <trkpt lat="50.39258" lon="2.70882">
        <ele>93.39</ele>
        <time>2015-11-13T10:16:41Z</time>
      </trkpt>
      <trkpt lat="50.39259" lon="2.70882">
        <ele>93.39</ele>
        <time>2015-11-13T10:16:42Z</time>
      </trkpt>
      <trkpt lat="50.39273" lon="2.70895">
        <ele>92.9</ele>
        <time>2015-11-13T10:16:53Z</time>
      </trkpt>
      <trkpt lat="50.39274" lon="2.70896">
        <ele>92.9</ele>
        <time>2015-11-13T10:16:54Z</time>
      </trkpt>
      <trkpt lat="50.39279" lon="2.70899">
        <ele>92.9</ele>
        <time>2015-11-13T10:17:10Z</time>
      </trkpt>
      <trkpt lat="50.39279" lon="2.70903">
        <ele>92.9</ele>
        <time>2015-11-13T10:17:36Z</time>
      </trkpt>
      <trkpt lat="50.39279" lon="2.70905">
        <ele>92.42</ele>
        <time>2015-11-13T10:17:57Z</time>
      </trkpt>
      <trkpt lat="50.39279" lon="2.70906">
        <ele>93.87</ele>
        <time>2015-11-13T10:18:00Z</time>
      </trkpt>
      <trkpt lat="50.39279" lon="2.70907">
        <ele>93.87</ele>
        <time>2015-11-13T10:18:29Z</time>
      </trkpt>
      <trkpt lat="50.39278" lon="2.70905">
        <ele>93.87</ele>
        <time>2015-11-13T10:19:02Z</time>
      </trkpt>
      <trkpt lat="50.3928" lon="2.70902">
        <ele>93.87</ele>
        <time>2015-11-13T10:19:17Z</time>
      </trkpt>
      <trkpt lat="50.39285" lon="2.70903">
        <ele>94.35</ele>
        <time>2015-11-13T10:19:49Z</time>
      </trkpt>
      <trkpt lat="50.39291" lon="2.70899">
        <ele>94.35</ele>
        <time>2015-11-13T10:20:22Z</time>
      </trkpt>
      <trkpt lat="50.39291" lon="2.70899">
        <ele>93.39</ele>
        <time>2015-11-13T10:20:26Z</time>
      </trkpt>
      <trkpt lat="50.39291" lon="2.70899">
        <ele>94.35</ele>
        <time>2015-11-13T10:20:31Z</time>
      </trkpt>
      <trkpt lat="50.39289" lon="2.709">
        <ele>95.31</ele>
        <time>2015-11-13T10:20:41Z</time>
      </trkpt>
      <trkpt lat="50.39287" lon="2.70902">
        <ele>94.35</ele>
        <time>2015-11-13T10:21:08Z</time>
      </trkpt>
      <trkpt lat="50.39286" lon="2.70901">
        <ele>94.35</ele>
        <time>2015-11-13T10:21:28Z</time>
      </trkpt>
      <trkpt lat="50.39285" lon="2.70904">
        <ele>93.87</ele>
        <time>2015-11-13T10:21:41Z</time>
      </trkpt>
      <trkpt lat="50.39286" lon="2.70906">
        <ele>93.87</ele>
        <time>2015-11-13T10:21:42Z</time>
      </trkpt>
      <trkpt lat="50.39286" lon="2.70907">
        <ele>93.87</ele>
        <time>2015-11-13T10:21:43Z</time>
      </trkpt>
      <trkpt lat="50.39287" lon="2.70908">
        <ele>93.87</ele>
        <time>2015-11-13T10:21:44Z</time>
      </trkpt>
      <trkpt lat="50.39287" lon="2.70909">
        <ele>93.87</ele>
        <time>2015-11-13T10:21:45Z</time>
      </trkpt>
      <trkpt lat="50.39288" lon="2.70911">
        <ele>93.87</ele>
        <time>2015-11-13T10:21:46Z</time>
      </trkpt>
      <trkpt lat="50.39289" lon="2.70912">
        <ele>93.87</ele>
        <time>2015-11-13T10:21:47Z</time>
      </trkpt>
      <trkpt lat="50.3929" lon="2.70913">
        <ele>93.87</ele>
        <time>2015-11-13T10:21:48Z</time>
      </trkpt>
      <trkpt lat="50.39291" lon="2.70914">
        <ele>93.87</ele>
        <time>2015-11-13T10:21:49Z</time>
      </trkpt>
      <trkpt lat="50.39292" lon="2.70916">
        <ele>93.87</ele>
        <time>2015-11-13T10:21:50Z</time>
      </trkpt>
      <trkpt lat="50.39305" lon="2.70933">
        <ele>92.42</ele>
        <time>2015-11-13T10:22:05Z</time>
      </trkpt>
      <trkpt lat="50.39306" lon="2.70935">
        <ele>92.9</ele>
        <time>2015-11-13T10:22:07Z</time>
      </trkpt>
      <trkpt lat="50.39306" lon="2.70937">
        <ele>92.9</ele>
        <time>2015-11-13T10:22:08Z</time>
      </trkpt>
      <trkpt lat="50.39307" lon="2.70939">
        <ele>92.9</ele>
        <time>2015-11-13T10:22:09Z</time>
      </trkpt>
      <trkpt lat="50.39307" lon="2.70941">
        <ele>92.9</ele>
        <time>2015-11-13T10:22:10Z</time>
      </trkpt>
      <trkpt lat="50.39308" lon="2.70942">
        <ele>92.9</ele>
        <time>2015-11-13T10:22:11Z</time>
      </trkpt>
      <trkpt lat="50.39324" lon="2.70958">
        <ele>90.98</ele>
        <time>2015-11-13T10:22:25Z</time>
      </trkpt>
      <trkpt lat="50.39341" lon="2.70979">
        <ele>90.5</ele>
        <time>2015-11-13T10:22:41Z</time>
      </trkpt>
      <trkpt lat="50.39349" lon="2.70989">
        <ele>90.02</ele>
        <time>2015-11-13T10:22:47Z</time>
      </trkpt>
      <trkpt lat="50.3935" lon="2.70989">
        <ele>90.02</ele>
        <time>2015-11-13T10:22:48Z</time>
      </trkpt>
      <trkpt lat="50.39352" lon="2.70989">
        <ele>89.54</ele>
        <time>2015-11-13T10:22:49Z</time>
      </trkpt>
      <trkpt lat="50.39353" lon="2.70989">
        <ele>89.54</ele>
        <time>2015-11-13T10:22:50Z</time>
      </trkpt>
      <trkpt lat="50.39355" lon="2.70989">
        <ele>89.54</ele>
        <time>2015-11-13T10:22:51Z</time>
      </trkpt>
      <trkpt lat="50.39356" lon="2.7099">
        <ele>89.54</ele>
        <time>2015-11-13T10:22:52Z</time>
      </trkpt>
      <trkpt lat="50.39358" lon="2.70989">
        <ele>89.54</ele>
        <time>2015-11-13T10:22:53Z</time>
      </trkpt>
      <trkpt lat="50.39359" lon="2.70989">
        <ele>89.54</ele>
        <time>2015-11-13T10:22:54Z</time>
      </trkpt>
      <trkpt lat="50.39364" lon="2.70982">
        <ele>89.06</ele>
        <time>2015-11-13T10:22:59Z</time>
      </trkpt>
      <trkpt lat="50.39364" lon="2.7098">
        <ele>89.06</ele>
        <time>2015-11-13T10:23:00Z</time>
      </trkpt>
      <trkpt lat="50.39365" lon="2.70977">
        <ele>89.06</ele>
        <time>2015-11-13T10:23:01Z</time>
      </trkpt>
      <trkpt lat="50.39366" lon="2.70974">
        <ele>89.06</ele>
        <time>2015-11-13T10:23:02Z</time>
      </trkpt>
      <trkpt lat="50.39366" lon="2.70972">
        <ele>89.06</ele>
        <time>2015-11-13T10:23:03Z</time>
      </trkpt>
      <trkpt lat="50.39367" lon="2.70969">
        <ele>89.06</ele>
        <time>2015-11-13T10:23:04Z</time>
      </trkpt>
      <trkpt lat="50.39368" lon="2.70967">
        <ele>89.06</ele>
        <time>2015-11-13T10:23:05Z</time>
      </trkpt>
      <trkpt lat="50.39368" lon="2.70966">
        <ele>89.06</ele>
        <time>2015-11-13T10:23:06Z</time>
      </trkpt>
      <trkpt lat="50.39369" lon="2.70965">
        <ele>89.06</ele>
        <time>2015-11-13T10:23:07Z</time>
      </trkpt>
      <trkpt lat="50.39385" lon="2.70937">
        <ele>89.54</ele>
        <time>2015-11-13T10:23:24Z</time>
      </trkpt>
      <trkpt lat="50.39409" lon="2.70921">
        <ele>90.5</ele>
        <time>2015-11-13T10:23:43Z</time>
      </trkpt>
      <trkpt lat="50.39428" lon="2.70922">
        <ele>90.5</ele>
        <time>2015-11-13T10:23:59Z</time>
      </trkpt>
      <trkpt lat="50.39441" lon="2.70937">
        <ele>90.5</ele>
        <time>2015-11-13T10:24:11Z</time>
      </trkpt>
      <trkpt lat="50.39456" lon="2.70956">
        <ele>91.46</ele>
        <time>2015-11-13T10:24:25Z</time>
      </trkpt>
      <trkpt lat="50.3948" lon="2.70979">
        <ele>92.9</ele>
        <time>2015-11-13T10:24:44Z</time>
      </trkpt>
      <trkpt lat="50.39498" lon="2.70993">
        <ele>94.83</ele>
        <time>2015-11-13T10:25:00Z</time>
      </trkpt>
      <trkpt lat="50.39514" lon="2.71002">
        <ele>97.23</ele>
        <time>2015-11-13T10:25:14Z</time>
      </trkpt>
      <trkpt lat="50.39518" lon="2.71007">
        <ele>99.15</ele>
        <time>2015-11-13T10:25:20Z</time>
      </trkpt>
      <trkpt lat="50.39514" lon="2.71033">
        <ele>99.63</ele>
        <time>2015-11-13T10:25:33Z</time>
      </trkpt>
      <trkpt lat="50.39509" lon="2.7106">
        <ele>100.6</ele>
        <time>2015-11-13T10:25:45Z</time>
      </trkpt>
      <trkpt lat="50.39507" lon="2.71073">
        <ele>101.08</ele>
        <time>2015-11-13T10:25:51Z</time>
      </trkpt>
      <trkpt lat="50.39502" lon="2.71111">
        <ele>102.04</ele>
        <time>2015-11-13T10:26:08Z</time>
      </trkpt>
      <trkpt lat="50.39497" lon="2.71152">
        <ele>102.04</ele>
        <time>2015-11-13T10:26:26Z</time>
      </trkpt>
      <trkpt lat="50.39492" lon="2.71191">
        <ele>102.04</ele>
        <time>2015-11-13T10:26:43Z</time>
      </trkpt>
      <trkpt lat="50.39492" lon="2.71194">
        <ele>102.04</ele>
        <time>2015-11-13T10:26:44Z</time>
      </trkpt>
      <trkpt lat="50.39493" lon="2.71197">
        <ele>102.04</ele>
        <time>2015-11-13T10:26:46Z</time>
      </trkpt>
      <trkpt lat="50.39497" lon="2.71197">
        <ele>104.92</ele>
        <time>2015-11-13T10:26:53Z</time>
      </trkpt>
      <trkpt lat="50.39497" lon="2.71193">
        <ele>104.92</ele>
        <time>2015-11-13T10:27:03Z</time>
      </trkpt>
      <trkpt lat="50.39497" lon="2.71196">
        <ele>103.96</ele>
        <time>2015-11-13T10:27:18Z</time>
      </trkpt>
      <trkpt lat="50.39495" lon="2.71196">
        <ele>103.96</ele>
        <time>2015-11-13T10:27:31Z</time>
      </trkpt>
      <trkpt lat="50.39495" lon="2.71197">
        <ele>103.96</ele>
        <time>2015-11-13T10:27:47Z</time>
      </trkpt>
      <trkpt lat="50.39496" lon="2.71195">
        <ele>104.44</ele>
        <time>2015-11-13T10:28:05Z</time>
      </trkpt>
      <trkpt lat="50.39498" lon="2.71192">
        <ele>105.4</ele>
        <time>2015-11-13T10:28:32Z</time>
      </trkpt>
      <trkpt lat="50.39498" lon="2.71194">
        <ele>105.4</ele>
        <time>2015-11-13T10:28:54Z</time>
      </trkpt>
      <trkpt lat="50.39499" lon="2.71197">
        <ele>105.4</ele>
        <time>2015-11-13T10:29:15Z</time>
      </trkpt>
      <trkpt lat="50.39498" lon="2.71194">
        <ele>105.4</ele>
        <time>2015-11-13T10:29:31Z</time>
      </trkpt>
      <trkpt lat="50.39499" lon="2.71193">
        <ele>105.88</ele>
        <time>2015-11-13T10:29:45Z</time>
      </trkpt>
      <trkpt lat="50.39499" lon="2.71192">
        <ele>106.36</ele>
        <time>2015-11-13T10:30:01Z</time>
      </trkpt>
      <trkpt lat="50.39497" lon="2.71193">
        <ele>104.92</ele>
        <time>2015-11-13T10:30:07Z</time>
      </trkpt>
      <trkpt lat="50.39497" lon="2.71193">
        <ele>104.92</ele>
        <time>2015-11-13T10:30:21Z</time>
      </trkpt>
      <trkpt lat="50.39498" lon="2.71192">
        <ele>104.92</ele>
        <time>2015-11-13T10:30:34Z</time>
      </trkpt>
      <trkpt lat="50.39498" lon="2.71185">
        <ele>103.96</ele>
        <time>2015-11-13T10:30:49Z</time>
      </trkpt>
      <trkpt lat="50.39496" lon="2.71194">
        <ele>103.48</ele>
        <time>2015-11-13T10:31:06Z</time>
      </trkpt>
      <trkpt lat="50.39497" lon="2.71193">
        <ele>103.48</ele>
        <time>2015-11-13T10:31:23Z</time>
      </trkpt>
      <trkpt lat="50.39498" lon="2.71196">
        <ele>103.48</ele>
        <time>2015-11-13T10:31:47Z</time>
      </trkpt>
      <trkpt lat="50.39499" lon="2.71196">
        <ele>103.48</ele>
        <time>2015-11-13T10:32:16Z</time>
      </trkpt>
      <trkpt lat="50.39497" lon="2.71198">
        <ele>103.48</ele>
        <time>2015-11-13T10:32:47Z</time>
      </trkpt>
      <trkpt lat="50.39497" lon="2.71197">
        <ele>104.44</ele>
        <time>2015-11-13T10:33:06Z</time>
      </trkpt>
      <trkpt lat="50.39496" lon="2.71197">
        <ele>103.48</ele>
        <time>2015-11-13T10:33:07Z</time>
      </trkpt>
      <trkpt lat="50.39492" lon="2.712">
        <ele>101.56</ele>
        <time>2015-11-13T10:33:10Z</time>
      </trkpt>
      <trkpt lat="50.39491" lon="2.71208">
        <ele>101.56</ele>
        <time>2015-11-13T10:33:14Z</time>
      </trkpt>
      <trkpt lat="50.39494" lon="2.71243">
        <ele>101.56</ele>
        <time>2015-11-13T10:33:31Z</time>
      </trkpt>
      <trkpt lat="50.39496" lon="2.71277">
        <ele>99.63</ele>
        <time>2015-11-13T10:33:46Z</time>
      </trkpt>
      <trkpt lat="50.39494" lon="2.71297">
        <ele>99.63</ele>
        <time>2015-11-13T10:33:55Z</time>
      </trkpt>
      <trkpt lat="50.39493" lon="2.713">
        <ele>99.15</ele>
        <time>2015-11-13T10:33:57Z</time>
      </trkpt>
      <trkpt lat="50.3949" lon="2.7134">
        <ele>98.67</ele>
        <time>2015-11-13T10:34:12Z</time>
      </trkpt>
      <trkpt lat="50.39485" lon="2.71377">
        <ele>97.71</ele>
        <time>2015-11-13T10:34:28Z</time>
      </trkpt>
      <trkpt lat="50.39474" lon="2.71414">
        <ele>94.35</ele>
        <time>2015-11-13T10:34:45Z</time>
      </trkpt>
      <trkpt lat="50.39461" lon="2.71445">
        <ele>94.35</ele>
        <time>2015-11-13T10:35:02Z</time>
      </trkpt>
      <trkpt lat="50.39458" lon="2.71445">
        <ele>94.83</ele>
        <time>2015-11-13T10:35:14Z</time>
      </trkpt>
      <trkpt lat="50.39452" lon="2.71447">
        <ele>92.9</ele>
        <time>2015-11-13T10:35:19Z</time>
      </trkpt>
      <trkpt lat="50.39428" lon="2.71445">
        <ele>92.42</ele>
        <time>2015-11-13T10:35:37Z</time>
      </trkpt>
      <trkpt lat="50.39424" lon="2.71444">
        <ele>90.98</ele>
        <time>2015-11-13T10:35:40Z</time>
      </trkpt>
      <trkpt lat="50.39418" lon="2.71443">
        <ele>89.54</ele>
        <time>2015-11-13T10:35:44Z</time>
      </trkpt>
      <trkpt lat="50.39385" lon="2.71438">
        <ele>88.1</ele>
        <time>2015-11-13T10:36:05Z</time>
      </trkpt>
      <trkpt lat="50.3936" lon="2.71433">
        <ele>86.66</ele>
        <time>2015-11-13T10:36:20Z</time>
      </trkpt>
      <trkpt lat="50.39353" lon="2.71432">
        <ele>86.66</ele>
        <time>2015-11-13T10:36:25Z</time>
      </trkpt>
      <trkpt lat="50.39345" lon="2.71439">
        <ele>86.66</ele>
        <time>2015-11-13T10:36:32Z</time>
      </trkpt>
      <trkpt lat="50.39345" lon="2.71486">
        <ele>86.18</ele>
        <time>2015-11-13T10:36:51Z</time>
      </trkpt>
      <trkpt lat="50.39345" lon="2.71506">
        <ele>84.73</ele>
        <time>2015-11-13T10:36:59Z</time>
      </trkpt>
      <trkpt lat="50.39345" lon="2.71511">
        <ele>86.18</ele>
        <time>2015-11-13T10:37:01Z</time>
      </trkpt>
      <trkpt lat="50.39345" lon="2.7152">
        <ele>84.73</ele>
        <time>2015-11-13T10:37:05Z</time>
      </trkpt>
      <trkpt lat="50.39347" lon="2.7155">
        <ele>83.77</ele>
        <time>2015-11-13T10:37:19Z</time>
      </trkpt>
      <trkpt lat="50.39335" lon="2.71578">
        <ele>83.77</ele>
        <time>2015-11-13T10:37:35Z</time>
      </trkpt>
      <trkpt lat="50.39319" lon="2.71616">
        <ele>83.29</ele>
        <time>2015-11-13T10:37:51Z</time>
      </trkpt>
      <trkpt lat="50.39304" lon="2.71654">
        <ele>83.29</ele>
        <time>2015-11-13T10:38:09Z</time>
      </trkpt>
      <trkpt lat="50.39295" lon="2.71667">
        <ele>83.29</ele>
        <time>2015-11-13T10:38:18Z</time>
      </trkpt>
      <trkpt lat="50.39276" lon="2.71664">
        <ele>83.29</ele>
        <time>2015-11-13T10:38:34Z</time>
      </trkpt>
      <trkpt lat="50.39262" lon="2.71687">
        <ele>83.29</ele>
        <time>2015-11-13T10:38:49Z</time>
      </trkpt>
      <trkpt lat="50.39248" lon="2.71711">
        <ele>83.77</ele>
        <time>2015-11-13T10:39:05Z</time>
      </trkpt>
      <trkpt lat="50.39242" lon="2.71729">
        <ele>83.77</ele>
        <time>2015-11-13T10:39:14Z</time>
      </trkpt>
      <trkpt lat="50.39239" lon="2.71743">
        <ele>83.77</ele>
        <time>2015-11-13T10:39:21Z</time>
      </trkpt>
      <trkpt lat="50.39236" lon="2.71757">
        <ele>83.77</ele>
        <time>2015-11-13T10:39:27Z</time>
      </trkpt>
      <trkpt lat="50.39229" lon="2.71785">
        <ele>82.81</ele>
        <time>2015-11-13T10:39:39Z</time>
      </trkpt>
      <trkpt lat="50.39229" lon="2.71787">
        <ele>82.81</ele>
        <time>2015-11-13T10:39:40Z</time>
      </trkpt>
      <trkpt lat="50.39229" lon="2.71801">
        <ele>82.81</ele>
        <time>2015-11-13T10:39:46Z</time>
      </trkpt>
      <trkpt lat="50.39213" lon="2.71833">
        <ele>82.81</ele>
        <time>2015-11-13T10:40:05Z</time>
      </trkpt>
      <trkpt lat="50.39204" lon="2.71866">
        <ele>82.81</ele>
        <time>2015-11-13T10:40:20Z</time>
      </trkpt>
      <trkpt lat="50.39203" lon="2.71869">
        <ele>82.33</ele>
        <time>2015-11-13T10:40:37Z</time>
      </trkpt>
      <trkpt lat="50.39203" lon="2.71869">
        <ele>82.33</ele>
        <time>2015-11-13T10:40:55Z</time>
      </trkpt>
      <trkpt lat="50.39202" lon="2.71867">
        <ele>82.33</ele>
        <time>2015-11-13T10:41:24Z</time>
      </trkpt>
      <trkpt lat="50.39201" lon="2.71869">
        <ele>82.33</ele>
        <time>2015-11-13T10:41:49Z</time>
      </trkpt>
      <trkpt lat="50.392" lon="2.71872">
        <ele>83.29</ele>
        <time>2015-11-13T10:42:16Z</time>
      </trkpt>
      <trkpt lat="50.39203" lon="2.71899">
        <ele>83.29</ele>
        <time>2015-11-13T10:42:32Z</time>
      </trkpt>
      <trkpt lat="50.39207" lon="2.71928">
        <ele>83.77</ele>
        <time>2015-11-13T10:42:48Z</time>
      </trkpt>
      <trkpt lat="50.39211" lon="2.71943">
        <ele>83.77</ele>
        <time>2015-11-13T10:42:54Z</time>
      </trkpt>
      <trkpt lat="50.39215" lon="2.71957">
        <ele>83.77</ele>
        <time>2015-11-13T10:43:01Z</time>
      </trkpt>
      <trkpt lat="50.39218" lon="2.7197">
        <ele>83.77</ele>
        <time>2015-11-13T10:43:07Z</time>
      </trkpt>
      <trkpt lat="50.39203" lon="2.71982">
        <ele>83.77</ele>
        <time>2015-11-13T10:43:22Z</time>
      </trkpt>
      <trkpt lat="50.39186" lon="2.71993">
        <ele>84.25</ele>
        <time>2015-11-13T10:43:35Z</time>
      </trkpt>
      <trkpt lat="50.3916" lon="2.71996">
        <ele>84.25</ele>
        <time>2015-11-13T10:43:52Z</time>
      </trkpt>
      <trkpt lat="50.39134" lon="2.72003">
        <ele>84.73</ele>
        <time>2015-11-13T10:44:09Z</time>
      </trkpt>
      <trkpt lat="50.39133" lon="2.72004">
        <ele>84.73</ele>
        <time>2015-11-13T10:44:10Z</time>
      </trkpt>
      <trkpt lat="50.39123" lon="2.72025">
        <ele>85.21</ele>
        <time>2015-11-13T10:44:23Z</time>
      </trkpt>
      <trkpt lat="50.39122" lon="2.72015">
        <ele>85.21</ele>
        <time>2015-11-13T10:44:29Z</time>
      </trkpt>
      <trkpt lat="50.3912" lon="2.72057">
        <ele>86.18</ele>
        <time>2015-11-13T10:44:47Z</time>
      </trkpt>
      <trkpt lat="50.39117" lon="2.72076">
        <ele>86.18</ele>
        <time>2015-11-13T10:44:55Z</time>
      </trkpt>
      <trkpt lat="50.39111" lon="2.72082">
        <ele>86.18</ele>
        <time>2015-11-13T10:44:59Z</time>
      </trkpt>
      <trkpt lat="50.3909" lon="2.72088">
        <ele>87.14</ele>
        <time>2015-11-13T10:45:14Z</time>
      </trkpt>
      <trkpt lat="50.39074" lon="2.72082">
        <ele>86.18</ele>
        <time>2015-11-13T10:45:24Z</time>
      </trkpt>
      <trkpt lat="50.39065" lon="2.72079">
        <ele>87.62</ele>
        <time>2015-11-13T10:45:30Z</time>
      </trkpt>
      <trkpt lat="50.39035" lon="2.72075">
        <ele>89.06</ele>
        <time>2015-11-13T10:45:49Z</time>
      </trkpt>
      <trkpt lat="50.39012" lon="2.72098">
        <ele>90.02</ele>
        <time>2015-11-13T10:46:07Z</time>
      </trkpt>
      <trkpt lat="50.38983" lon="2.72123">
        <ele>91.46</ele>
        <time>2015-11-13T10:46:28Z</time>
      </trkpt>
      <trkpt lat="50.38961" lon="2.72146">
        <ele>91.94</ele>
        <time>2015-11-13T10:46:45Z</time>
      </trkpt>
      <trkpt lat="50.38942" lon="2.72169">
        <ele>92.42</ele>
        <time>2015-11-13T10:47:01Z</time>
      </trkpt>
      <trkpt lat="50.38942" lon="2.7217">
        <ele>92.42</ele>
        <time>2015-11-13T10:47:02Z</time>
      </trkpt>
      <trkpt lat="50.38961" lon="2.72142">
        <ele>92.42</ele>
        <time>2015-11-13T10:47:19Z</time>
      </trkpt>
      <trkpt lat="50.38988" lon="2.72116">
        <ele>90.98</ele>
        <time>2015-11-13T10:47:40Z</time>
      </trkpt>
      <trkpt lat="50.38991" lon="2.72115">
        <ele>90.5</ele>
        <time>2015-11-13T10:47:42Z</time>
      </trkpt>
      <trkpt lat="50.39007" lon="2.72099">
        <ele>90.02</ele>
        <time>2015-11-13T10:47:55Z</time>
      </trkpt>
      <trkpt lat="50.39023" lon="2.72085">
        <ele>90.02</ele>
        <time>2015-11-13T10:48:09Z</time>
      </trkpt>
      <trkpt lat="50.39024" lon="2.72085">
        <ele>90.02</ele>
        <time>2015-11-13T10:48:11Z</time>
      </trkpt>
      <trkpt lat="50.39032" lon="2.72077">
        <ele>90.02</ele>
        <time>2015-11-13T10:48:17Z</time>
      </trkpt>
      <trkpt lat="50.39047" lon="2.72076">
        <ele>89.06</ele>
        <time>2015-11-13T10:48:28Z</time>
      </trkpt>
      <trkpt lat="50.39049" lon="2.72077">
        <ele>89.06</ele>
        <time>2015-11-13T10:48:30Z</time>
      </trkpt>
      <trkpt lat="50.39056" lon="2.72078">
        <ele>88.58</ele>
        <time>2015-11-13T10:48:35Z</time>
      </trkpt>
      <trkpt lat="50.39078" lon="2.72085">
        <ele>88.1</ele>
        <time>2015-11-13T10:48:49Z</time>
      </trkpt>
      <trkpt lat="50.39079" lon="2.72085">
        <ele>88.1</ele>
        <time>2015-11-13T10:48:50Z</time>
      </trkpt>
      <trkpt lat="50.39085" lon="2.72088">
        <ele>87.62</ele>
        <time>2015-11-13T10:48:54Z</time>
      </trkpt>
      <trkpt lat="50.39092" lon="2.72088">
        <ele>86.66</ele>
        <time>2015-11-13T10:48:59Z</time>
      </trkpt>
      <trkpt lat="50.39096" lon="2.72089">
        <ele>86.66</ele>
        <time>2015-11-13T10:49:03Z</time>
      </trkpt>
      <trkpt lat="50.391" lon="2.72089">
        <ele>86.66</ele>
        <time>2015-11-13T10:49:05Z</time>
      </trkpt>
      <trkpt lat="50.39109" lon="2.72081">
        <ele>86.18</ele>
        <time>2015-11-13T10:49:11Z</time>
      </trkpt>
      <trkpt lat="50.39112" lon="2.72073">
        <ele>85.69</ele>
        <time>2015-11-13T10:49:15Z</time>
      </trkpt>
      <trkpt lat="50.39122" lon="2.72043">
        <ele>85.21</ele>
        <time>2015-11-13T10:49:30Z</time>
      </trkpt>
      <trkpt lat="50.39123" lon="2.72033">
        <ele>85.21</ele>
        <time>2015-11-13T10:49:34Z</time>
      </trkpt>
      <trkpt lat="50.39126" lon="2.72015">
        <ele>85.69</ele>
        <time>2015-11-13T10:49:42Z</time>
      </trkpt>
      <trkpt lat="50.39128" lon="2.72011">
        <ele>85.69</ele>
        <time>2015-11-13T10:49:44Z</time>
      </trkpt>
      <trkpt lat="50.39141" lon="2.71998">
        <ele>85.69</ele>
        <time>2015-11-13T10:49:58Z</time>
      </trkpt>
      <trkpt lat="50.39164" lon="2.71996">
        <ele>83.77</ele>
        <time>2015-11-13T10:50:10Z</time>
      </trkpt>
      <trkpt lat="50.39173" lon="2.71996">
        <ele>83.77</ele>
        <time>2015-11-13T10:50:16Z</time>
      </trkpt>
      <trkpt lat="50.39183" lon="2.71995">
        <ele>83.77</ele>
        <time>2015-11-13T10:50:22Z</time>
      </trkpt>
      <trkpt lat="50.39201" lon="2.71993">
        <ele>83.77</ele>
        <time>2015-11-13T10:50:34Z</time>
      </trkpt>
      <trkpt lat="50.39219" lon="2.71988">
        <ele>83.77</ele>
        <time>2015-11-13T10:50:46Z</time>
      </trkpt>
      <trkpt lat="50.39238" lon="2.72003">
        <ele>83.77</ele>
        <time>2015-11-13T10:51:01Z</time>
      </trkpt>
      <trkpt lat="50.3925" lon="2.72017">
        <ele>83.77</ele>
        <time>2015-11-13T10:51:10Z</time>
      </trkpt>
      <trkpt lat="50.39258" lon="2.72028">
        <ele>85.21</ele>
        <time>2015-11-13T10:51:16Z</time>
      </trkpt>
      <trkpt lat="50.39263" lon="2.72047">
        <ele>85.21</ele>
        <time>2015-11-13T10:51:25Z</time>
      </trkpt>
      <trkpt lat="50.39263" lon="2.7205">
        <ele>85.21</ele>
        <time>2015-11-13T10:51:26Z</time>
      </trkpt>
      <trkpt lat="50.39263" lon="2.72051">
        <ele>85.21</ele>
        <time>2015-11-13T10:51:27Z</time>
      </trkpt>
      <trkpt lat="50.39263" lon="2.72053">
        <ele>85.21</ele>
        <time>2015-11-13T10:51:28Z</time>
      </trkpt>
      <trkpt lat="50.39262" lon="2.72055">
        <ele>85.21</ele>
        <time>2015-11-13T10:51:29Z</time>
      </trkpt>
      <trkpt lat="50.39261" lon="2.72057">
        <ele>85.21</ele>
        <time>2015-11-13T10:51:30Z</time>
      </trkpt>
      <trkpt lat="50.39261" lon="2.72059">
        <ele>85.21</ele>
        <time>2015-11-13T10:51:31Z</time>
      </trkpt>
      <trkpt lat="50.39261" lon="2.72061">
        <ele>85.21</ele>
        <time>2015-11-13T10:51:32Z</time>
      </trkpt>
      <trkpt lat="50.3926" lon="2.72063">
        <ele>85.21</ele>
        <time>2015-11-13T10:51:33Z</time>
      </trkpt>
      <trkpt lat="50.3926" lon="2.72065">
        <ele>85.21</ele>
        <time>2015-11-13T10:51:34Z</time>
      </trkpt>
      <trkpt lat="50.3926" lon="2.72072">
        <ele>85.21</ele>
        <time>2015-11-13T10:51:37Z</time>
      </trkpt>
      <trkpt lat="50.3926" lon="2.72074">
        <ele>85.21</ele>
        <time>2015-11-13T10:51:38Z</time>
      </trkpt>
      <trkpt lat="50.3926" lon="2.72077">
        <ele>85.21</ele>
        <time>2015-11-13T10:51:39Z</time>
      </trkpt>
      <trkpt lat="50.39256" lon="2.72093">
        <ele>84.73</ele>
        <time>2015-11-13T10:51:46Z</time>
      </trkpt>
      <trkpt lat="50.39256" lon="2.72095">
        <ele>84.73</ele>
        <time>2015-11-13T10:51:47Z</time>
      </trkpt>
      <trkpt lat="50.39256" lon="2.72098">
        <ele>84.73</ele>
        <time>2015-11-13T10:51:48Z</time>
      </trkpt>
      <trkpt lat="50.39255" lon="2.721">
        <ele>84.73</ele>
        <time>2015-11-13T10:51:49Z</time>
      </trkpt>
      <trkpt lat="50.39255" lon="2.72103">
        <ele>84.73</ele>
        <time>2015-11-13T10:51:50Z</time>
      </trkpt>
      <trkpt lat="50.39256" lon="2.72108">
        <ele>84.73</ele>
        <time>2015-11-13T10:51:51Z</time>
      </trkpt>
      <trkpt lat="50.39256" lon="2.72111">
        <ele>84.73</ele>
        <time>2015-11-13T10:51:52Z</time>
      </trkpt>
      <trkpt lat="50.39256" lon="2.72117">
        <ele>84.73</ele>
        <time>2015-11-13T10:51:55Z</time>
      </trkpt>
      <trkpt lat="50.39256" lon="2.7212">
        <ele>84.73</ele>
        <time>2015-11-13T10:51:56Z</time>
      </trkpt>
      <trkpt lat="50.39255" lon="2.72123">
        <ele>84.73</ele>
        <time>2015-11-13T10:51:57Z</time>
      </trkpt>
      <trkpt lat="50.39254" lon="2.72126">
        <ele>84.73</ele>
        <time>2015-11-13T10:51:58Z</time>
      </trkpt>
      <trkpt lat="50.39253" lon="2.72128">
        <ele>84.73</ele>
        <time>2015-11-13T10:51:59Z</time>
      </trkpt>
      <trkpt lat="50.39251" lon="2.7213">
        <ele>84.73</ele>
        <time>2015-11-13T10:52:00Z</time>
      </trkpt>
      <trkpt lat="50.3925" lon="2.72132">
        <ele>83.77</ele>
        <time>2015-11-13T10:52:01Z</time>
      </trkpt>
      <trkpt lat="50.3925" lon="2.72134">
        <ele>83.77</ele>
        <time>2015-11-13T10:52:02Z</time>
      </trkpt>
      <trkpt lat="50.3925" lon="2.72136">
        <ele>83.77</ele>
        <time>2015-11-13T10:52:03Z</time>
      </trkpt>
      <trkpt lat="50.39249" lon="2.72138">
        <ele>83.77</ele>
        <time>2015-11-13T10:52:04Z</time>
      </trkpt>
      <trkpt lat="50.3925" lon="2.72141">
        <ele>83.77</ele>
        <time>2015-11-13T10:52:05Z</time>
      </trkpt>
      <trkpt lat="50.3925" lon="2.72144">
        <ele>83.77</ele>
        <time>2015-11-13T10:52:06Z</time>
      </trkpt>
      <trkpt lat="50.3925" lon="2.72147">
        <ele>83.77</ele>
        <time>2015-11-13T10:52:07Z</time>
      </trkpt>
      <trkpt lat="50.39252" lon="2.72161">
        <ele>83.29</ele>
        <time>2015-11-13T10:52:13Z</time>
      </trkpt>
      <trkpt lat="50.3925" lon="2.72167">
        <ele>83.29</ele>
        <time>2015-11-13T10:52:16Z</time>
      </trkpt>
      <trkpt lat="50.3925" lon="2.72169">
        <ele>83.29</ele>
        <time>2015-11-13T10:52:17Z</time>
      </trkpt>
      <trkpt lat="50.3925" lon="2.72172">
        <ele>83.29</ele>
        <time>2015-11-13T10:52:18Z</time>
      </trkpt>
      <trkpt lat="50.3925" lon="2.72174">
        <ele>83.29</ele>
        <time>2015-11-13T10:52:19Z</time>
      </trkpt>
      <trkpt lat="50.3925" lon="2.72176">
        <ele>83.29</ele>
        <time>2015-11-13T10:52:20Z</time>
      </trkpt>
      <trkpt lat="50.39251" lon="2.72188">
        <ele>83.29</ele>
        <time>2015-11-13T10:52:26Z</time>
      </trkpt>
      <trkpt lat="50.39251" lon="2.72189">
        <ele>82.81</ele>
        <time>2015-11-13T10:52:27Z</time>
      </trkpt>
      <trkpt lat="50.39252" lon="2.72212">
        <ele>81.85</ele>
        <time>2015-11-13T10:52:37Z</time>
      </trkpt>
      <trkpt lat="50.39252" lon="2.72214">
        <ele>81.85</ele>
        <time>2015-11-13T10:52:38Z</time>
      </trkpt>
      <trkpt lat="50.39252" lon="2.72217">
        <ele>81.85</ele>
        <time>2015-11-13T10:52:39Z</time>
      </trkpt>
      <trkpt lat="50.3925" lon="2.72225">
        <ele>81.85</ele>
        <time>2015-11-13T10:52:42Z</time>
      </trkpt>
      <trkpt lat="50.39249" lon="2.72228">
        <ele>81.85</ele>
        <time>2015-11-13T10:52:43Z</time>
      </trkpt>
      <trkpt lat="50.39249" lon="2.7223">
        <ele>81.85</ele>
        <time>2015-11-13T10:52:44Z</time>
      </trkpt>
      <trkpt lat="50.39248" lon="2.72233">
        <ele>81.85</ele>
        <time>2015-11-13T10:52:45Z</time>
      </trkpt>
      <trkpt lat="50.39248" lon="2.72236">
        <ele>81.85</ele>
        <time>2015-11-13T10:52:46Z</time>
      </trkpt>
      <trkpt lat="50.39248" lon="2.72239">
        <ele>81.85</ele>
        <time>2015-11-13T10:52:47Z</time>
      </trkpt>
      <trkpt lat="50.39247" lon="2.72241">
        <ele>81.85</ele>
        <time>2015-11-13T10:52:48Z</time>
      </trkpt>
      <trkpt lat="50.39247" lon="2.72244">
        <ele>81.85</ele>
        <time>2015-11-13T10:52:49Z</time>
      </trkpt>
      <trkpt lat="50.39241" lon="2.7227">
        <ele>81.37</ele>
        <time>2015-11-13T10:53:00Z</time>
      </trkpt>
      <trkpt lat="50.39241" lon="2.72272">
        <ele>81.37</ele>
        <time>2015-11-13T10:53:01Z</time>
      </trkpt>
      <trkpt lat="50.39233" lon="2.72303">
        <ele>80.41</ele>
        <time>2015-11-13T10:53:15Z</time>
      </trkpt>
      <trkpt lat="50.39233" lon="2.72305">
        <ele>80.41</ele>
        <time>2015-11-13T10:53:16Z</time>
      </trkpt>
      <trkpt lat="50.39233" lon="2.72307">
        <ele>80.41</ele>
        <time>2015-11-13T10:53:17Z</time>
      </trkpt>
      <trkpt lat="50.39232" lon="2.72309">
        <ele>80.41</ele>
        <time>2015-11-13T10:53:18Z</time>
      </trkpt>
      <trkpt lat="50.39232" lon="2.72311">
        <ele>80.41</ele>
        <time>2015-11-13T10:53:19Z</time>
      </trkpt>
      <trkpt lat="50.39231" lon="2.72314">
        <ele>80.41</ele>
        <time>2015-11-13T10:53:20Z</time>
      </trkpt>
      <trkpt lat="50.39223" lon="2.72348">
        <ele>80.41</ele>
        <time>2015-11-13T10:53:35Z</time>
      </trkpt>
      <trkpt lat="50.39222" lon="2.72353">
        <ele>81.85</ele>
        <time>2015-11-13T10:53:37Z</time>
      </trkpt>
      <trkpt lat="50.39217" lon="2.72365">
        <ele>81.85</ele>
        <time>2015-11-13T10:53:43Z</time>
      </trkpt>
      <trkpt lat="50.39216" lon="2.72366">
        <ele>81.85</ele>
        <time>2015-11-13T10:53:44Z</time>
      </trkpt>
      <trkpt lat="50.39214" lon="2.7237">
        <ele>81.85</ele>
        <time>2015-11-13T10:53:46Z</time>
      </trkpt>
      <trkpt lat="50.39213" lon="2.72372">
        <ele>81.85</ele>
        <time>2015-11-13T10:53:47Z</time>
      </trkpt>
      <trkpt lat="50.39213" lon="2.72375">
        <ele>81.85</ele>
        <time>2015-11-13T10:53:48Z</time>
      </trkpt>
      <trkpt lat="50.39213" lon="2.72377">
        <ele>81.85</ele>
        <time>2015-11-13T10:53:49Z</time>
      </trkpt>
      <trkpt lat="50.39212" lon="2.7238">
        <ele>81.85</ele>
        <time>2015-11-13T10:53:50Z</time>
      </trkpt>
      <trkpt lat="50.39208" lon="2.72398">
        <ele>81.85</ele>
        <time>2015-11-13T10:53:58Z</time>
      </trkpt>
      <trkpt lat="50.39207" lon="2.724">
        <ele>81.85</ele>
        <time>2015-11-13T10:53:59Z</time>
      </trkpt>
      <trkpt lat="50.39206" lon="2.72403">
        <ele>81.85</ele>
        <time>2015-11-13T10:54:00Z</time>
      </trkpt>
      <trkpt lat="50.39206" lon="2.72405">
        <ele>81.85</ele>
        <time>2015-11-13T10:54:01Z</time>
      </trkpt>
      <trkpt lat="50.39205" lon="2.72408">
        <ele>81.85</ele>
        <time>2015-11-13T10:54:02Z</time>
      </trkpt>
      <trkpt lat="50.39204" lon="2.72411">
        <ele>81.85</ele>
        <time>2015-11-13T10:54:03Z</time>
      </trkpt>
      <trkpt lat="50.39203" lon="2.72415">
        <ele>80.41</ele>
        <time>2015-11-13T10:54:05Z</time>
      </trkpt>
      <trkpt lat="50.39194" lon="2.72448">
        <ele>80.41</ele>
        <time>2015-11-13T10:54:19Z</time>
      </trkpt>
      <trkpt lat="50.39188" lon="2.72473">
        <ele>80.41</ele>
        <time>2015-11-13T10:54:31Z</time>
      </trkpt>
      <trkpt lat="50.39181" lon="2.72506">
        <ele>80.41</ele>
        <time>2015-11-13T10:54:46Z</time>
      </trkpt>
      <trkpt lat="50.39178" lon="2.72523">
        <ele>80.41</ele>
        <time>2015-11-13T10:54:56Z</time>
      </trkpt>
      <trkpt lat="50.39169" lon="2.72564">
        <ele>80.41</ele>
        <time>2015-11-13T10:55:13Z</time>
      </trkpt>
      <trkpt lat="50.39166" lon="2.72567">
        <ele>80.41</ele>
        <time>2015-11-13T10:55:16Z</time>
      </trkpt>
      <trkpt lat="50.39165" lon="2.72565">
        <ele>80.41</ele>
        <time>2015-11-13T10:55:30Z</time>
      </trkpt>
      <trkpt lat="50.39165" lon="2.72564">
        <ele>80.89</ele>
        <time>2015-11-13T10:55:55Z</time>
      </trkpt>
      <trkpt lat="50.39164" lon="2.72562">
        <ele>80.89</ele>
        <time>2015-11-13T10:56:17Z</time>
      </trkpt>
      <trkpt lat="50.39164" lon="2.72563">
        <ele>79.93</ele>
        <time>2015-11-13T10:56:47Z</time>
      </trkpt>
      <trkpt lat="50.39166" lon="2.72565">
        <ele>80.41</ele>
        <time>2015-11-13T10:57:23Z</time>
      </trkpt>
      <trkpt lat="50.39169" lon="2.72563">
        <ele>81.37</ele>
        <time>2015-11-13T10:57:27Z</time>
      </trkpt>
      <trkpt lat="50.39171" lon="2.72562">
        <ele>80.89</ele>
        <time>2015-11-13T10:57:28Z</time>
      </trkpt>
      <trkpt lat="50.39173" lon="2.72561">
        <ele>80.89</ele>
        <time>2015-11-13T10:57:29Z</time>
      </trkpt>
      <trkpt lat="50.39173" lon="2.72561">
        <ele>80.89</ele>
        <time>2015-11-13T10:57:30Z</time>
      </trkpt>
      <trkpt lat="50.39174" lon="2.7256">
        <ele>80.89</ele>
        <time>2015-11-13T10:57:31Z</time>
      </trkpt>
      <trkpt lat="50.39175" lon="2.72559">
        <ele>80.89</ele>
        <time>2015-11-13T10:57:32Z</time>
      </trkpt>
      <trkpt lat="50.39182" lon="2.72537">
        <ele>78.97</ele>
        <time>2015-11-13T10:57:44Z</time>
      </trkpt>
      <trkpt lat="50.39184" lon="2.72528">
        <ele>80.41</ele>
        <time>2015-11-13T10:57:49Z</time>
      </trkpt>
      <trkpt lat="50.39192" lon="2.72487">
        <ele>79.93</ele>
        <time>2015-11-13T10:58:08Z</time>
      </trkpt>
      <trkpt lat="50.39201" lon="2.72448">
        <ele>79.93</ele>
        <time>2015-11-13T10:58:27Z</time>
      </trkpt>
      <trkpt lat="50.39204" lon="2.72438">
        <ele>80.89</ele>
        <time>2015-11-13T10:58:32Z</time>
      </trkpt>
      <trkpt lat="50.39214" lon="2.7241">
        <ele>80.89</ele>
        <time>2015-11-13T10:58:45Z</time>
      </trkpt>
      <trkpt lat="50.39223" lon="2.72375">
        <ele>80.89</ele>
        <time>2015-11-13T10:59:01Z</time>
      </trkpt>
      <trkpt lat="50.39224" lon="2.72373">
        <ele>80.89</ele>
        <time>2015-11-13T10:59:02Z</time>
      </trkpt>
      <trkpt lat="50.39224" lon="2.72371">
        <ele>80.41</ele>
        <time>2015-11-13T10:59:03Z</time>
      </trkpt>
      <trkpt lat="50.39225" lon="2.72369">
        <ele>80.41</ele>
        <time>2015-11-13T10:59:04Z</time>
      </trkpt>
      <trkpt lat="50.39226" lon="2.72368">
        <ele>80.41</ele>
        <time>2015-11-13T10:59:05Z</time>
      </trkpt>
      <trkpt lat="50.39226" lon="2.72366">
        <ele>80.41</ele>
        <time>2015-11-13T10:59:06Z</time>
      </trkpt>
      <trkpt lat="50.39235" lon="2.72337">
        <ele>80.41</ele>
        <time>2015-11-13T10:59:20Z</time>
      </trkpt>
      <trkpt lat="50.39243" lon="2.72306">
        <ele>79.45</ele>
        <time>2015-11-13T10:59:35Z</time>
      </trkpt>
      <trkpt lat="50.39245" lon="2.72299">
        <ele>81.37</ele>
        <time>2015-11-13T10:59:38Z</time>
      </trkpt>
      <trkpt lat="50.39247" lon="2.72295">
        <ele>81.85</ele>
        <time>2015-11-13T10:59:40Z</time>
      </trkpt>
      <trkpt lat="50.39256" lon="2.72263">
        <ele>82.33</ele>
        <time>2015-11-13T10:59:55Z</time>
      </trkpt>
      <trkpt lat="50.39259" lon="2.72259">
        <ele>82.33</ele>
        <time>2015-11-13T10:59:59Z</time>
      </trkpt>
      <trkpt lat="50.39259" lon="2.72256">
        <ele>82.33</ele>
        <time>2015-11-13T11:00:00Z</time>
      </trkpt>
      <trkpt lat="50.3926" lon="2.72254">
        <ele>82.81</ele>
        <time>2015-11-13T11:00:01Z</time>
      </trkpt>
      <trkpt lat="50.39262" lon="2.72244">
        <ele>82.81</ele>
        <time>2015-11-13T11:00:07Z</time>
      </trkpt>
      <trkpt lat="50.39262" lon="2.7224">
        <ele>82.33</ele>
        <time>2015-11-13T11:00:09Z</time>
      </trkpt>
      <trkpt lat="50.39263" lon="2.72238">
        <ele>82.33</ele>
        <time>2015-11-13T11:00:10Z</time>
      </trkpt>
      <trkpt lat="50.39264" lon="2.72229">
        <ele>81.37</ele>
        <time>2015-11-13T11:00:13Z</time>
      </trkpt>
      <trkpt lat="50.39264" lon="2.72227">
        <ele>81.37</ele>
        <time>2015-11-13T11:00:14Z</time>
      </trkpt>
      <trkpt lat="50.39268" lon="2.72202">
        <ele>81.37</ele>
        <time>2015-11-13T11:00:24Z</time>
      </trkpt>
      <trkpt lat="50.39269" lon="2.72195">
        <ele>81.37</ele>
        <time>2015-11-13T11:00:28Z</time>
      </trkpt>
      <trkpt lat="50.3927" lon="2.72193">
        <ele>81.37</ele>
        <time>2015-11-13T11:00:29Z</time>
      </trkpt>
      <trkpt lat="50.3927" lon="2.72191">
        <ele>81.37</ele>
        <time>2015-11-13T11:00:30Z</time>
      </trkpt>
      <trkpt lat="50.3927" lon="2.72189">
        <ele>81.37</ele>
        <time>2015-11-13T11:00:31Z</time>
      </trkpt>
      <trkpt lat="50.3927" lon="2.72186">
        <ele>81.37</ele>
        <time>2015-11-13T11:00:32Z</time>
      </trkpt>
      <trkpt lat="50.3927" lon="2.72181">
        <ele>81.37</ele>
        <time>2015-11-13T11:00:34Z</time>
      </trkpt>
      <trkpt lat="50.3927" lon="2.72178">
        <ele>81.37</ele>
        <time>2015-11-13T11:00:35Z</time>
      </trkpt>
      <trkpt lat="50.39268" lon="2.72162">
        <ele>82.81</ele>
        <time>2015-11-13T11:00:39Z</time>
      </trkpt>
      <trkpt lat="50.39269" lon="2.7212">
        <ele>81.37</ele>
        <time>2015-11-13T11:00:53Z</time>
      </trkpt>
      <trkpt lat="50.39272" lon="2.72107">
        <ele>81.37</ele>
        <time>2015-11-13T11:00:59Z</time>
      </trkpt>
      <trkpt lat="50.39274" lon="2.72107">
        <ele>81.37</ele>
        <time>2015-11-13T11:01:00Z</time>
      </trkpt>
      <trkpt lat="50.39276" lon="2.72107">
        <ele>83.29</ele>
        <time>2015-11-13T11:01:02Z</time>
      </trkpt>
      <trkpt lat="50.39277" lon="2.72108">
        <ele>83.77</ele>
        <time>2015-11-13T11:01:03Z</time>
      </trkpt>
      <trkpt lat="50.39278" lon="2.72108">
        <ele>83.29</ele>
        <time>2015-11-13T11:01:04Z</time>
      </trkpt>
      <trkpt lat="50.39279" lon="2.72108">
        <ele>83.29</ele>
        <time>2015-11-13T11:01:05Z</time>
      </trkpt>
      <trkpt lat="50.39301" lon="2.7212">
        <ele>84.25</ele>
        <time>2015-11-13T11:01:20Z</time>
      </trkpt>
      <trkpt lat="50.39323" lon="2.72131">
        <ele>87.14</ele>
        <time>2015-11-13T11:01:36Z</time>
      </trkpt>
      <trkpt lat="50.39342" lon="2.72122">
        <ele>87.14</ele>
        <time>2015-11-13T11:01:49Z</time>
      </trkpt>
      <trkpt lat="50.39365" lon="2.72119">
        <ele>87.62</ele>
        <time>2015-11-13T11:02:04Z</time>
      </trkpt>
      <trkpt lat="50.39376" lon="2.72122">
        <ele>88.1</ele>
        <time>2015-11-13T11:02:12Z</time>
      </trkpt>
      <trkpt lat="50.39377" lon="2.72125">
        <ele>88.1</ele>
        <time>2015-11-13T11:02:13Z</time>
      </trkpt>
      <trkpt lat="50.39377" lon="2.72128">
        <ele>88.1</ele>
        <time>2015-11-13T11:02:14Z</time>
      </trkpt>
      <trkpt lat="50.39377" lon="2.7213">
        <ele>88.1</ele>
        <time>2015-11-13T11:02:15Z</time>
      </trkpt>
      <trkpt lat="50.39378" lon="2.72133">
        <ele>88.1</ele>
        <time>2015-11-13T11:02:16Z</time>
      </trkpt>
      <trkpt lat="50.39378" lon="2.72135">
        <ele>88.1</ele>
        <time>2015-11-13T11:02:17Z</time>
      </trkpt>
      <trkpt lat="50.39378" lon="2.72138">
        <ele>88.1</ele>
        <time>2015-11-13T11:02:18Z</time>
      </trkpt>
      <trkpt lat="50.39378" lon="2.7214">
        <ele>88.58</ele>
        <time>2015-11-13T11:02:19Z</time>
      </trkpt>
      <trkpt lat="50.39379" lon="2.72148">
        <ele>88.58</ele>
        <time>2015-11-13T11:02:22Z</time>
      </trkpt>
      <trkpt lat="50.39379" lon="2.72151">
        <ele>88.58</ele>
        <time>2015-11-13T11:02:23Z</time>
      </trkpt>
      <trkpt lat="50.39379" lon="2.72154">
        <ele>88.58</ele>
        <time>2015-11-13T11:02:24Z</time>
      </trkpt>
      <trkpt lat="50.39379" lon="2.72156">
        <ele>88.58</ele>
        <time>2015-11-13T11:02:25Z</time>
      </trkpt>
      <trkpt lat="50.39379" lon="2.72158">
        <ele>88.58</ele>
        <time>2015-11-13T11:02:26Z</time>
      </trkpt>
      <trkpt lat="50.39379" lon="2.72161">
        <ele>88.58</ele>
        <time>2015-11-13T11:02:27Z</time>
      </trkpt>
      <trkpt lat="50.39379" lon="2.72163">
        <ele>88.58</ele>
        <time>2015-11-13T11:02:28Z</time>
      </trkpt>
      <trkpt lat="50.39385" lon="2.72212">
        <ele>88.58</ele>
        <time>2015-11-13T11:02:49Z</time>
      </trkpt>
      <trkpt lat="50.39386" lon="2.72255">
        <ele>88.58</ele>
        <time>2015-11-13T11:03:07Z</time>
      </trkpt>
      <trkpt lat="50.39385" lon="2.72293">
        <ele>89.54</ele>
        <time>2015-11-13T11:03:24Z</time>
      </trkpt>
      <trkpt lat="50.39379" lon="2.72332">
        <ele>90.02</ele>
        <time>2015-11-13T11:03:42Z</time>
      </trkpt>
      <trkpt lat="50.39372" lon="2.72383">
        <ele>88.58</ele>
        <time>2015-11-13T11:04:05Z</time>
      </trkpt>
      <trkpt lat="50.39363" lon="2.72436">
        <ele>89.06</ele>
        <time>2015-11-13T11:04:30Z</time>
      </trkpt>
      <trkpt lat="50.39353" lon="2.72479">
        <ele>89.06</ele>
        <time>2015-11-13T11:04:51Z</time>
      </trkpt>
      <trkpt lat="50.39352" lon="2.72488">
        <ele>88.1</ele>
        <time>2015-11-13T11:04:55Z</time>
      </trkpt>
      <trkpt lat="50.39342" lon="2.72539">
        <ele>87.62</ele>
        <time>2015-11-13T11:05:18Z</time>
      </trkpt>
      <trkpt lat="50.39335" lon="2.72592">
        <ele>86.18</ele>
        <time>2015-11-13T11:05:43Z</time>
      </trkpt>
      <trkpt lat="50.39328" lon="2.72643">
        <ele>87.14</ele>
        <time>2015-11-13T11:06:07Z</time>
      </trkpt>
      <trkpt lat="50.39327" lon="2.72645">
        <ele>87.14</ele>
        <time>2015-11-13T11:06:08Z</time>
      </trkpt>
      <trkpt lat="50.39327" lon="2.72656">
        <ele>86.18</ele>
        <time>2015-11-13T11:06:13Z</time>
      </trkpt>
      <trkpt lat="50.39324" lon="2.72708">
        <ele>86.18</ele>
        <time>2015-11-13T11:06:37Z</time>
      </trkpt>
      <trkpt lat="50.39325" lon="2.72754">
        <ele>86.18</ele>
        <time>2015-11-13T11:06:59Z</time>
      </trkpt>
      <trkpt lat="50.39326" lon="2.7277">
        <ele>87.62</ele>
        <time>2015-11-13T11:07:17Z</time>
      </trkpt>
      <trkpt lat="50.39326" lon="2.72773">
        <ele>86.18</ele>
        <time>2015-11-13T11:07:39Z</time>
      </trkpt>
    </trkseg>
  </trk>
</gpx>